<?xml version="1.0" encoding="UTF-8" standalone="no" ?>
<gpx xmlns="http://www.topografix.com/GPX/1/1" xmlns:xsi="http://www.w3.org/2001/XMLSchema-instance" xsi:schemaLocation="http://www.topografix.com/GPX/1/1 http://www.topografix.com/GPX/1/1/gpx.xsd" version="1.1" creator="VisuGPX - https://www.visugpx.com">
  <metadata>
    <name>20-02-20 Cime de la Jasse en ski</name>
    <desc><![CDATA[Parking Le Muret (Prabert) alt. 1343m est accessible par voiture.
Les 200 derniers mètres de descente ne sont pas skiables (ski-cailloux).]]></desc>
  </metadata>
  <trk>
    <name><![CDATA[20-02-20 Cime de la Jasse en ski]]></name>
    <desc><![CDATA[]]></desc>
    <trkseg>
      <trkpt lat="45.22459" lon="5.99844">
        <ele>1395</ele>
        <time>2020-02-20T07:17:14.000Z</time>
      </trkpt>
      <trkpt lat="45.22456" lon="5.99838">
        <ele>1385</ele>
        <time>2020-02-20T07:18:08.000Z</time>
      </trkpt>
      <trkpt lat="45.22457" lon="5.99846">
        <ele>1388</ele>
        <time>2020-02-20T07:20:01.000Z</time>
      </trkpt>
      <trkpt lat="45.22452" lon="5.99848">
        <ele>1391</ele>
        <time>2020-02-20T07:20:38.229Z</time>
      </trkpt>
      <trkpt lat="45.22451" lon="5.99855">
        <ele>1389</ele>
        <time>2020-02-20T07:20:48.817Z</time>
      </trkpt>
      <trkpt lat="45.22454" lon="5.99862">
        <ele>1386</ele>
        <time>2020-02-20T07:20:56.000Z</time>
      </trkpt>
      <trkpt lat="45.2246" lon="5.99869">
        <ele>1384</ele>
        <time>2020-02-20T07:21:02.476Z</time>
      </trkpt>
      <trkpt lat="45.22463" lon="5.99874">
        <ele>1383</ele>
        <time>2020-02-20T07:21:09.211Z</time>
      </trkpt>
      <trkpt lat="45.22465" lon="5.9988">
        <ele>1382</ele>
        <time>2020-02-20T07:21:15.419Z</time>
      </trkpt>
      <trkpt lat="45.22466" lon="5.99888">
        <ele>1381</ele>
        <time>2020-02-20T07:21:27.000Z</time>
      </trkpt>
      <trkpt lat="45.22467" lon="5.99898">
        <ele>1381</ele>
        <time>2020-02-20T07:21:36.000Z</time>
      </trkpt>
      <trkpt lat="45.22468" lon="5.99904">
        <ele>1380</ele>
        <time>2020-02-20T07:21:42.706Z</time>
      </trkpt>
      <trkpt lat="45.22469" lon="5.99912">
        <ele>1380</ele>
        <time>2020-02-20T07:21:49.680Z</time>
      </trkpt>
      <trkpt lat="45.2247" lon="5.99919">
        <ele>1379</ele>
        <time>2020-02-20T07:21:57.000Z</time>
      </trkpt>
      <trkpt lat="45.2247" lon="5.99926">
        <ele>1378</ele>
        <time>2020-02-20T07:22:02.778Z</time>
      </trkpt>
      <trkpt lat="45.22469" lon="5.99933">
        <ele>1377</ele>
        <time>2020-02-20T07:22:10.000Z</time>
      </trkpt>
      <trkpt lat="45.22468" lon="5.9994">
        <ele>1375</ele>
        <time>2020-02-20T07:22:15.350Z</time>
      </trkpt>
      <trkpt lat="45.22465" lon="5.99947">
        <ele>1374</ele>
        <time>2020-02-20T07:22:23.000Z</time>
      </trkpt>
      <trkpt lat="45.22462" lon="5.99956">
        <ele>1372</ele>
        <time>2020-02-20T07:22:33.000Z</time>
      </trkpt>
      <trkpt lat="45.2246" lon="5.99963">
        <ele>1370</ele>
        <time>2020-02-20T07:22:40.000Z</time>
      </trkpt>
      <trkpt lat="45.22459" lon="5.9997">
        <ele>1369</ele>
        <time>2020-02-20T07:22:46.000Z</time>
      </trkpt>
      <trkpt lat="45.22458" lon="5.99978">
        <ele>1370</ele>
        <time>2020-02-20T07:22:51.757Z</time>
      </trkpt>
      <trkpt lat="45.22457" lon="5.99985">
        <ele>1370</ele>
        <time>2020-02-20T07:22:58.631Z</time>
      </trkpt>
      <trkpt lat="45.22456" lon="5.99992">
        <ele>1372</ele>
        <time>2020-02-20T07:23:05.269Z</time>
      </trkpt>
      <trkpt lat="45.22455" lon="6">
        <ele>1372</ele>
        <time>2020-02-20T07:23:15.467Z</time>
      </trkpt>
      <trkpt lat="45.22453" lon="6.00007">
        <ele>1374</ele>
        <time>2020-02-20T07:23:27.000Z</time>
      </trkpt>
      <trkpt lat="45.22452" lon="6.00013">
        <ele>1376</ele>
        <time>2020-02-20T07:23:38.000Z</time>
      </trkpt>
      <trkpt lat="45.22451" lon="6.0002">
        <ele>1376</ele>
        <time>2020-02-20T07:23:48.000Z</time>
      </trkpt>
      <trkpt lat="45.22449" lon="6.00026">
        <ele>1377</ele>
        <time>2020-02-20T07:23:54.294Z</time>
      </trkpt>
      <trkpt lat="45.22446" lon="6.00033">
        <ele>1379</ele>
        <time>2020-02-20T07:24:10.000Z</time>
      </trkpt>
      <trkpt lat="45.22444" lon="6.00043">
        <ele>1379</ele>
        <time>2020-02-20T07:24:19.976Z</time>
      </trkpt>
      <trkpt lat="45.22441" lon="6.00051">
        <ele>1381</ele>
        <time>2020-02-20T07:24:31.030Z</time>
      </trkpt>
      <trkpt lat="45.22438" lon="6.00056">
        <ele>1387</ele>
        <time>2020-02-20T07:24:37.565Z</time>
      </trkpt>
      <trkpt lat="45.22433" lon="6.00062">
        <ele>1389</ele>
        <time>2020-02-20T07:24:49.000Z</time>
      </trkpt>
      <trkpt lat="45.22429" lon="6.00068">
        <ele>1390</ele>
        <time>2020-02-20T07:24:58.865Z</time>
      </trkpt>
      <trkpt lat="45.22425" lon="6.00073">
        <ele>1391</ele>
        <time>2020-02-20T07:25:09.631Z</time>
      </trkpt>
      <trkpt lat="45.22422" lon="6.00079">
        <ele>1393</ele>
        <time>2020-02-20T07:25:19.388Z</time>
      </trkpt>
      <trkpt lat="45.22416" lon="6.00084">
        <ele>1391</ele>
        <time>2020-02-20T07:25:29.636Z</time>
      </trkpt>
      <trkpt lat="45.22412" lon="6.00088">
        <ele>1392</ele>
        <time>2020-02-20T07:25:40.000Z</time>
      </trkpt>
      <trkpt lat="45.22409" lon="6.00095">
        <ele>1391</ele>
        <time>2020-02-20T07:25:49.175Z</time>
      </trkpt>
      <trkpt lat="45.22405" lon="6.00102">
        <ele>1389</ele>
        <time>2020-02-20T07:26:00.051Z</time>
      </trkpt>
      <trkpt lat="45.22402" lon="6.0011">
        <ele>1389</ele>
        <time>2020-02-20T07:26:09.828Z</time>
      </trkpt>
      <trkpt lat="45.22398" lon="6.00118">
        <ele>1388</ele>
        <time>2020-02-20T07:26:20.000Z</time>
      </trkpt>
      <trkpt lat="45.22394" lon="6.00122">
        <ele>1388</ele>
        <time>2020-02-20T07:26:26.103Z</time>
      </trkpt>
      <trkpt lat="45.2239" lon="6.00125">
        <ele>1391</ele>
        <time>2020-02-20T07:26:34.000Z</time>
      </trkpt>
      <trkpt lat="45.22387" lon="6.00131">
        <ele>1396</ele>
        <time>2020-02-20T07:26:48.000Z</time>
      </trkpt>
      <trkpt lat="45.22383" lon="6.00138">
        <ele>1394</ele>
        <time>2020-02-20T07:26:58.000Z</time>
      </trkpt>
      <trkpt lat="45.22379" lon="6.00139">
        <ele>1395</ele>
        <time>2020-02-20T07:27:12.000Z</time>
      </trkpt>
      <trkpt lat="45.22376" lon="6.00145">
        <ele>1404</ele>
        <time>2020-02-20T07:27:54.000Z</time>
      </trkpt>
      <trkpt lat="45.22376" lon="6.00152">
        <ele>1412</ele>
        <time>2020-02-20T07:28:24.000Z</time>
      </trkpt>
      <trkpt lat="45.22372" lon="6.00156">
        <ele>1420</ele>
        <time>2020-02-20T07:28:55.031Z</time>
      </trkpt>
      <trkpt lat="45.22374" lon="6.00164">
        <ele>1423</ele>
        <time>2020-02-20T07:29:17.000Z</time>
      </trkpt>
      <trkpt lat="45.22367" lon="6.00169">
        <ele>1431</ele>
        <time>2020-02-20T07:30:11.804Z</time>
      </trkpt>
      <trkpt lat="45.22359" lon="6.00167">
        <ele>1431</ele>
        <time>2020-02-20T07:30:34.000Z</time>
      </trkpt>
      <trkpt lat="45.22352" lon="6.0017">
        <ele>1430</ele>
        <time>2020-02-20T07:30:40.193Z</time>
      </trkpt>
      <trkpt lat="45.22346" lon="6.00175">
        <ele>1431</ele>
        <time>2020-02-20T07:30:47.163Z</time>
      </trkpt>
      <trkpt lat="45.22342" lon="6.00185">
        <ele>1434</ele>
        <time>2020-02-20T07:30:55.000Z</time>
      </trkpt>
      <trkpt lat="45.22339" lon="6.00191">
        <ele>1437</ele>
        <time>2020-02-20T07:30:59.000Z</time>
      </trkpt>
      <trkpt lat="45.22334" lon="6.00199">
        <ele>1439</ele>
        <time>2020-02-20T07:31:06.000Z</time>
      </trkpt>
      <trkpt lat="45.22327" lon="6.00204">
        <ele>1439</ele>
        <time>2020-02-20T07:31:11.655Z</time>
      </trkpt>
      <trkpt lat="45.2232" lon="6.00209">
        <ele>1441</ele>
        <time>2020-02-20T07:31:19.000Z</time>
      </trkpt>
      <trkpt lat="45.22315" lon="6.00217">
        <ele>1447</ele>
        <time>2020-02-20T07:31:26.000Z</time>
      </trkpt>
      <trkpt lat="45.22311" lon="6.00223">
        <ele>1451</ele>
        <time>2020-02-20T07:31:33.000Z</time>
      </trkpt>
      <trkpt lat="45.22307" lon="6.00226">
        <ele>1457</ele>
        <time>2020-02-20T07:31:45.500Z</time>
      </trkpt>
      <trkpt lat="45.22304" lon="6.00233">
        <ele>1458</ele>
        <time>2020-02-20T07:31:52.062Z</time>
      </trkpt>
      <trkpt lat="45.22302" lon="6.00241">
        <ele>1461</ele>
        <time>2020-02-20T07:32:00.000Z</time>
      </trkpt>
      <trkpt lat="45.22302" lon="6.00249">
        <ele>1461</ele>
        <time>2020-02-20T07:32:07.000Z</time>
      </trkpt>
      <trkpt lat="45.22302" lon="6.00258">
        <ele>1460</ele>
        <time>2020-02-20T07:32:13.075Z</time>
      </trkpt>
      <trkpt lat="45.22304" lon="6.00265">
        <ele>1458</ele>
        <time>2020-02-20T07:32:21.000Z</time>
      </trkpt>
      <trkpt lat="45.22308" lon="6.00273">
        <ele>1458</ele>
        <time>2020-02-20T07:32:26.139Z</time>
      </trkpt>
      <trkpt lat="45.22312" lon="6.00277">
        <ele>1458</ele>
        <time>2020-02-20T07:32:29.542Z</time>
      </trkpt>
      <trkpt lat="45.22315" lon="6.00284">
        <ele>1457</ele>
        <time>2020-02-20T07:32:35.994Z</time>
      </trkpt>
      <trkpt lat="45.22317" lon="6.00293">
        <ele>1455</ele>
        <time>2020-02-20T07:32:44.000Z</time>
      </trkpt>
      <trkpt lat="45.22317" lon="6.00303">
        <ele>1455</ele>
        <time>2020-02-20T07:32:51.000Z</time>
      </trkpt>
      <trkpt lat="45.22318" lon="6.00312">
        <ele>1455</ele>
        <time>2020-02-20T07:32:57.005Z</time>
      </trkpt>
      <trkpt lat="45.22317" lon="6.0032">
        <ele>1456</ele>
        <time>2020-02-20T07:33:03.453Z</time>
      </trkpt>
      <trkpt lat="45.22315" lon="6.00328">
        <ele>1455</ele>
        <time>2020-02-20T07:33:10.349Z</time>
      </trkpt>
      <trkpt lat="45.22313" lon="6.00335">
        <ele>1455</ele>
        <time>2020-02-20T07:33:18.000Z</time>
      </trkpt>
      <trkpt lat="45.22312" lon="6.00342">
        <ele>1454</ele>
        <time>2020-02-20T07:33:25.000Z</time>
      </trkpt>
      <trkpt lat="45.22308" lon="6.00348">
        <ele>1454</ele>
        <time>2020-02-20T07:33:33.984Z</time>
      </trkpt>
      <trkpt lat="45.22306" lon="6.00354">
        <ele>1455</ele>
        <time>2020-02-20T07:33:41.000Z</time>
      </trkpt>
      <trkpt lat="45.22304" lon="6.00363">
        <ele>1457</ele>
        <time>2020-02-20T07:33:49.622Z</time>
      </trkpt>
      <trkpt lat="45.22304" lon="6.0037">
        <ele>1458</ele>
        <time>2020-02-20T07:33:56.041Z</time>
      </trkpt>
      <trkpt lat="45.22303" lon="6.00376">
        <ele>1460</ele>
        <time>2020-02-20T07:34:03.000Z</time>
      </trkpt>
      <trkpt lat="45.22302" lon="6.00383">
        <ele>1461</ele>
        <time>2020-02-20T07:34:09.021Z</time>
      </trkpt>
      <trkpt lat="45.22298" lon="6.00389">
        <ele>1465</ele>
        <time>2020-02-20T07:34:18.564Z</time>
      </trkpt>
      <trkpt lat="45.22293" lon="6.00393">
        <ele>1468</ele>
        <time>2020-02-20T07:34:26.000Z</time>
      </trkpt>
      <trkpt lat="45.22288" lon="6.00399">
        <ele>1471</ele>
        <time>2020-02-20T07:34:33.000Z</time>
      </trkpt>
      <trkpt lat="45.22284" lon="6.00407">
        <ele>1475</ele>
        <time>2020-02-20T07:34:38.182Z</time>
      </trkpt>
      <trkpt lat="45.22284" lon="6.00414">
        <ele>1476</ele>
        <time>2020-02-20T07:34:46.000Z</time>
      </trkpt>
      <trkpt lat="45.22285" lon="6.00421">
        <ele>1476</ele>
        <time>2020-02-20T07:34:56.000Z</time>
      </trkpt>
      <trkpt lat="45.22278" lon="6.00425">
        <ele>1479</ele>
        <time>2020-02-20T07:35:03.000Z</time>
      </trkpt>
      <trkpt lat="45.22272" lon="6.00426">
        <ele>1482</ele>
        <time>2020-02-20T07:35:10.000Z</time>
      </trkpt>
      <trkpt lat="45.22267" lon="6.00431">
        <ele>1484</ele>
        <time>2020-02-20T07:35:15.970Z</time>
      </trkpt>
      <trkpt lat="45.22262" lon="6.00434">
        <ele>1486</ele>
        <time>2020-02-20T07:35:22.125Z</time>
      </trkpt>
      <trkpt lat="45.22257" lon="6.00436">
        <ele>1489</ele>
        <time>2020-02-20T07:35:29.000Z</time>
      </trkpt>
      <trkpt lat="45.2225" lon="6.00437">
        <ele>1490</ele>
        <time>2020-02-20T07:35:35.407Z</time>
      </trkpt>
      <trkpt lat="45.22244" lon="6.00438">
        <ele>1492</ele>
        <time>2020-02-20T07:35:44.000Z</time>
      </trkpt>
      <trkpt lat="45.22239" lon="6.00441">
        <ele>1496</ele>
        <time>2020-02-20T07:35:49.574Z</time>
      </trkpt>
      <trkpt lat="45.22234" lon="6.00445">
        <ele>1500</ele>
        <time>2020-02-20T07:35:57.000Z</time>
      </trkpt>
      <trkpt lat="45.2223" lon="6.0045">
        <ele>1504</ele>
        <time>2020-02-20T07:36:03.211Z</time>
      </trkpt>
      <trkpt lat="45.22226" lon="6.00457">
        <ele>1506</ele>
        <time>2020-02-20T07:36:12.577Z</time>
      </trkpt>
      <trkpt lat="45.22223" lon="6.00463">
        <ele>1507</ele>
        <time>2020-02-20T07:36:18.872Z</time>
      </trkpt>
      <trkpt lat="45.22222" lon="6.00471">
        <ele>1509</ele>
        <time>2020-02-20T07:36:28.791Z</time>
      </trkpt>
      <trkpt lat="45.22223" lon="6.00477">
        <ele>1510</ele>
        <time>2020-02-20T07:36:40.000Z</time>
      </trkpt>
      <trkpt lat="45.22219" lon="6.00484">
        <ele>1511</ele>
        <time>2020-02-20T07:36:49.157Z</time>
      </trkpt>
      <trkpt lat="45.22216" lon="6.00493">
        <ele>1512</ele>
        <time>2020-02-20T07:37:00.000Z</time>
      </trkpt>
      <trkpt lat="45.22216" lon="6.005">
        <ele>1514</ele>
        <time>2020-02-20T07:37:07.000Z</time>
      </trkpt>
      <trkpt lat="45.22218" lon="6.00508">
        <ele>1516</ele>
        <time>2020-02-20T07:37:13.000Z</time>
      </trkpt>
      <trkpt lat="45.22218" lon="6.00515">
        <ele>1518</ele>
        <time>2020-02-20T07:37:19.112Z</time>
      </trkpt>
      <trkpt lat="45.22218" lon="6.00523">
        <ele>1520</ele>
        <time>2020-02-20T07:37:26.135Z</time>
      </trkpt>
      <trkpt lat="45.22218" lon="6.00532">
        <ele>1520</ele>
        <time>2020-02-20T07:37:35.735Z</time>
      </trkpt>
      <trkpt lat="45.22219" lon="6.00539">
        <ele>1520</ele>
        <time>2020-02-20T07:37:42.918Z</time>
      </trkpt>
      <trkpt lat="45.22221" lon="6.00547">
        <ele>1522</ele>
        <time>2020-02-20T07:37:52.938Z</time>
      </trkpt>
      <trkpt lat="45.22222" lon="6.00553">
        <ele>1524</ele>
        <time>2020-02-20T07:38:00.000Z</time>
      </trkpt>
      <trkpt lat="45.22222" lon="6.00562">
        <ele>1525</ele>
        <time>2020-02-20T07:38:10.000Z</time>
      </trkpt>
      <trkpt lat="45.22224" lon="6.00572">
        <ele>1526</ele>
        <time>2020-02-20T07:38:21.000Z</time>
      </trkpt>
      <trkpt lat="45.22225" lon="6.00578">
        <ele>1525</ele>
        <time>2020-02-20T07:38:27.110Z</time>
      </trkpt>
      <trkpt lat="45.22227" lon="6.00585">
        <ele>1526</ele>
        <time>2020-02-20T07:38:33.807Z</time>
      </trkpt>
      <trkpt lat="45.22228" lon="6.00591">
        <ele>1529</ele>
        <time>2020-02-20T07:38:41.000Z</time>
      </trkpt>
      <trkpt lat="45.22229" lon="6.00598">
        <ele>1530</ele>
        <time>2020-02-20T07:38:46.867Z</time>
      </trkpt>
      <trkpt lat="45.2223" lon="6.00604">
        <ele>1529</ele>
        <time>2020-02-20T07:38:53.623Z</time>
      </trkpt>
      <trkpt lat="45.22233" lon="6.00612">
        <ele>1529</ele>
        <time>2020-02-20T07:39:03.712Z</time>
      </trkpt>
      <trkpt lat="45.22235" lon="6.00618">
        <ele>1529</ele>
        <time>2020-02-20T07:39:11.000Z</time>
      </trkpt>
      <trkpt lat="45.22238" lon="6.00625">
        <ele>1530</ele>
        <time>2020-02-20T07:39:17.062Z</time>
      </trkpt>
      <trkpt lat="45.22239" lon="6.00634">
        <ele>1531</ele>
        <time>2020-02-20T07:39:27.062Z</time>
      </trkpt>
      <trkpt lat="45.2224" lon="6.0064">
        <ele>1532</ele>
        <time>2020-02-20T07:39:34.036Z</time>
      </trkpt>
      <trkpt lat="45.22241" lon="6.00648">
        <ele>1534</ele>
        <time>2020-02-20T07:39:40.839Z</time>
      </trkpt>
      <trkpt lat="45.22241" lon="6.00656">
        <ele>1533</ele>
        <time>2020-02-20T07:39:48.003Z</time>
      </trkpt>
      <trkpt lat="45.22239" lon="6.00665">
        <ele>1533</ele>
        <time>2020-02-20T07:39:55.000Z</time>
      </trkpt>
      <trkpt lat="45.22238" lon="6.00672">
        <ele>1533</ele>
        <time>2020-02-20T07:40:00.358Z</time>
      </trkpt>
      <trkpt lat="45.22239" lon="6.00681">
        <ele>1534</ele>
        <time>2020-02-20T07:40:08.000Z</time>
      </trkpt>
      <trkpt lat="45.22239" lon="6.00688">
        <ele>1534</ele>
        <time>2020-02-20T07:40:13.599Z</time>
      </trkpt>
      <trkpt lat="45.2224" lon="6.00695">
        <ele>1534</ele>
        <time>2020-02-20T07:40:19.818Z</time>
      </trkpt>
      <trkpt lat="45.22241" lon="6.00701">
        <ele>1536</ele>
        <time>2020-02-20T07:40:26.573Z</time>
      </trkpt>
      <trkpt lat="45.22241" lon="6.00708">
        <ele>1536</ele>
        <time>2020-02-20T07:40:32.734Z</time>
      </trkpt>
      <trkpt lat="45.22239" lon="6.00716">
        <ele>1538</ele>
        <time>2020-02-20T07:40:40.014Z</time>
      </trkpt>
      <trkpt lat="45.22237" lon="6.00725">
        <ele>1541</ele>
        <time>2020-02-20T07:40:46.681Z</time>
      </trkpt>
      <trkpt lat="45.22236" lon="6.00732">
        <ele>1542</ele>
        <time>2020-02-20T07:40:52.916Z</time>
      </trkpt>
      <trkpt lat="45.22237" lon="6.0074">
        <ele>1542</ele>
        <time>2020-02-20T07:41:02.616Z</time>
      </trkpt>
      <trkpt lat="45.22237" lon="6.00749">
        <ele>1543</ele>
        <time>2020-02-20T07:41:09.492Z</time>
      </trkpt>
      <trkpt lat="45.22237" lon="6.00756">
        <ele>1544</ele>
        <time>2020-02-20T07:41:16.553Z</time>
      </trkpt>
      <trkpt lat="45.22236" lon="6.00763">
        <ele>1545</ele>
        <time>2020-02-20T07:41:24.000Z</time>
      </trkpt>
      <trkpt lat="45.22234" lon="6.00772">
        <ele>1548</ele>
        <time>2020-02-20T07:41:35.000Z</time>
      </trkpt>
      <trkpt lat="45.22233" lon="6.00782">
        <ele>1549</ele>
        <time>2020-02-20T07:41:44.710Z</time>
      </trkpt>
      <trkpt lat="45.2223" lon="6.00789">
        <ele>1551</ele>
        <time>2020-02-20T07:41:51.406Z</time>
      </trkpt>
      <trkpt lat="45.22231" lon="6.00797">
        <ele>1553</ele>
        <time>2020-02-20T07:42:01.164Z</time>
      </trkpt>
      <trkpt lat="45.22234" lon="6.00806">
        <ele>1554</ele>
        <time>2020-02-20T07:42:11.004Z</time>
      </trkpt>
      <trkpt lat="45.22238" lon="6.00813">
        <ele>1556</ele>
        <time>2020-02-20T07:42:20.583Z</time>
      </trkpt>
      <trkpt lat="45.22241" lon="6.0082">
        <ele>1557</ele>
        <time>2020-02-20T07:42:27.984Z</time>
      </trkpt>
      <trkpt lat="45.22242" lon="6.00827">
        <ele>1557</ele>
        <time>2020-02-20T07:42:34.163Z</time>
      </trkpt>
      <trkpt lat="45.22242" lon="6.00834">
        <ele>1556</ele>
        <time>2020-02-20T07:42:41.000Z</time>
      </trkpt>
      <trkpt lat="45.22242" lon="6.00843">
        <ele>1557</ele>
        <time>2020-02-20T07:42:49.000Z</time>
      </trkpt>
      <trkpt lat="45.2224" lon="6.00851">
        <ele>1560</ele>
        <time>2020-02-20T07:42:55.852Z</time>
      </trkpt>
      <trkpt lat="45.22239" lon="6.00863">
        <ele>1563</ele>
        <time>2020-02-20T07:43:06.186Z</time>
      </trkpt>
      <trkpt lat="45.2224" lon="6.00869">
        <ele>1565</ele>
        <time>2020-02-20T07:43:14.006Z</time>
      </trkpt>
      <trkpt lat="45.2224" lon="6.00876">
        <ele>1565</ele>
        <time>2020-02-20T07:43:21.091Z</time>
      </trkpt>
      <trkpt lat="45.22238" lon="6.00884">
        <ele>1569</ele>
        <time>2020-02-20T07:43:32.000Z</time>
      </trkpt>
      <trkpt lat="45.22235" lon="6.00891">
        <ele>1572</ele>
        <time>2020-02-20T07:43:42.000Z</time>
      </trkpt>
      <trkpt lat="45.2223" lon="6.00893">
        <ele>1571</ele>
        <time>2020-02-20T07:43:55.651Z</time>
      </trkpt>
      <trkpt lat="45.22232" lon="6.00901">
        <ele>1573</ele>
        <time>2020-02-20T07:44:02.857Z</time>
      </trkpt>
      <trkpt lat="45.22233" lon="6.00907">
        <ele>1575</ele>
        <time>2020-02-20T07:44:13.000Z</time>
      </trkpt>
      <trkpt lat="45.22231" lon="6.00914">
        <ele>1578</ele>
        <time>2020-02-20T07:44:20.000Z</time>
      </trkpt>
      <trkpt lat="45.2223" lon="6.0092">
        <ele>1579</ele>
        <time>2020-02-20T07:44:27.000Z</time>
      </trkpt>
      <trkpt lat="45.2223" lon="6.00927">
        <ele>1582</ele>
        <time>2020-02-20T07:44:34.000Z</time>
      </trkpt>
      <trkpt lat="45.22229" lon="6.00936">
        <ele>1583</ele>
        <time>2020-02-20T07:44:44.000Z</time>
      </trkpt>
      <trkpt lat="45.22227" lon="6.00943">
        <ele>1586</ele>
        <time>2020-02-20T07:44:50.051Z</time>
      </trkpt>
      <trkpt lat="45.22225" lon="6.00949">
        <ele>1588</ele>
        <time>2020-02-20T07:44:57.000Z</time>
      </trkpt>
      <trkpt lat="45.22226" lon="6.00958">
        <ele>1589</ele>
        <time>2020-02-20T07:45:04.000Z</time>
      </trkpt>
      <trkpt lat="45.22226" lon="6.00967">
        <ele>1590</ele>
        <time>2020-02-20T07:45:10.517Z</time>
      </trkpt>
      <trkpt lat="45.22226" lon="6.00975">
        <ele>1591</ele>
        <time>2020-02-20T07:45:18.000Z</time>
      </trkpt>
      <trkpt lat="45.22226" lon="6.00982">
        <ele>1593</ele>
        <time>2020-02-20T07:45:24.000Z</time>
      </trkpt>
      <trkpt lat="45.22225" lon="6.0099">
        <ele>1595</ele>
        <time>2020-02-20T07:45:29.818Z</time>
      </trkpt>
      <trkpt lat="45.22225" lon="6.00997">
        <ele>1596</ele>
        <time>2020-02-20T07:45:36.251Z</time>
      </trkpt>
      <trkpt lat="45.22225" lon="6.01005">
        <ele>1597</ele>
        <time>2020-02-20T07:45:42.798Z</time>
      </trkpt>
      <trkpt lat="45.22224" lon="6.01012">
        <ele>1599</ele>
        <time>2020-02-20T07:45:49.534Z</time>
      </trkpt>
      <trkpt lat="45.22223" lon="6.01019">
        <ele>1600</ele>
        <time>2020-02-20T07:45:57.000Z</time>
      </trkpt>
      <trkpt lat="45.22221" lon="6.01028">
        <ele>1601</ele>
        <time>2020-02-20T07:46:02.657Z</time>
      </trkpt>
      <trkpt lat="45.2222" lon="6.01036">
        <ele>1602</ele>
        <time>2020-02-20T07:46:11.000Z</time>
      </trkpt>
      <trkpt lat="45.2222" lon="6.01042">
        <ele>1603</ele>
        <time>2020-02-20T07:46:14.651Z</time>
      </trkpt>
      <trkpt lat="45.2222" lon="6.0105">
        <ele>1604</ele>
        <time>2020-02-20T07:46:22.000Z</time>
      </trkpt>
      <trkpt lat="45.22221" lon="6.0106">
        <ele>1604</ele>
        <time>2020-02-20T07:46:27.322Z</time>
      </trkpt>
      <trkpt lat="45.22223" lon="6.01067">
        <ele>1607</ele>
        <time>2020-02-20T07:46:33.779Z</time>
      </trkpt>
      <trkpt lat="45.22225" lon="6.01076">
        <ele>1610</ele>
        <time>2020-02-20T07:46:40.655Z</time>
      </trkpt>
      <trkpt lat="45.22228" lon="6.01083">
        <ele>1613</ele>
        <time>2020-02-20T07:46:54.996Z</time>
      </trkpt>
      <trkpt lat="45.2223" lon="6.01092">
        <ele>1615</ele>
        <time>2020-02-20T07:47:02.362Z</time>
      </trkpt>
      <trkpt lat="45.22232" lon="6.01099">
        <ele>1617</ele>
        <time>2020-02-20T07:47:08.602Z</time>
      </trkpt>
      <trkpt lat="45.22235" lon="6.01109">
        <ele>1617</ele>
        <time>2020-02-20T07:47:14.810Z</time>
      </trkpt>
      <trkpt lat="45.22236" lon="6.0112">
        <ele>1619</ele>
        <time>2020-02-20T07:47:21.526Z</time>
      </trkpt>
      <trkpt lat="45.22238" lon="6.01128">
        <ele>1620</ele>
        <time>2020-02-20T07:47:27.715Z</time>
      </trkpt>
      <trkpt lat="45.2224" lon="6.01137">
        <ele>1619</ele>
        <time>2020-02-20T07:47:34.000Z</time>
      </trkpt>
      <trkpt lat="45.22243" lon="6.01147">
        <ele>1620</ele>
        <time>2020-02-20T07:47:41.000Z</time>
      </trkpt>
      <trkpt lat="45.22245" lon="6.01153">
        <ele>1620</ele>
        <time>2020-02-20T07:47:49.000Z</time>
      </trkpt>
      <trkpt lat="45.22245" lon="6.0116">
        <ele>1620</ele>
        <time>2020-02-20T07:47:59.459Z</time>
      </trkpt>
      <trkpt lat="45.22246" lon="6.01168">
        <ele>1622</ele>
        <time>2020-02-20T07:48:06.000Z</time>
      </trkpt>
      <trkpt lat="45.22246" lon="6.01177">
        <ele>1623</ele>
        <time>2020-02-20T07:48:15.428Z</time>
      </trkpt>
      <trkpt lat="45.22247" lon="6.01184">
        <ele>1624</ele>
        <time>2020-02-20T07:48:26.380Z</time>
      </trkpt>
      <trkpt lat="45.22244" lon="6.01191">
        <ele>1626</ele>
        <time>2020-02-20T07:48:33.000Z</time>
      </trkpt>
      <trkpt lat="45.22241" lon="6.01196">
        <ele>1625</ele>
        <time>2020-02-20T07:48:39.819Z</time>
      </trkpt>
      <trkpt lat="45.2224" lon="6.01204">
        <ele>1625</ele>
        <time>2020-02-20T07:48:46.088Z</time>
      </trkpt>
      <trkpt lat="45.2224" lon="6.01211">
        <ele>1626</ele>
        <time>2020-02-20T07:48:52.745Z</time>
      </trkpt>
      <trkpt lat="45.2224" lon="6.01217">
        <ele>1626</ele>
        <time>2020-02-20T07:48:59.358Z</time>
      </trkpt>
      <trkpt lat="45.22237" lon="6.01224">
        <ele>1628</ele>
        <time>2020-02-20T07:49:07.000Z</time>
      </trkpt>
      <trkpt lat="45.22236" lon="6.01233">
        <ele>1631</ele>
        <time>2020-02-20T07:49:16.000Z</time>
      </trkpt>
      <trkpt lat="45.22236" lon="6.0124">
        <ele>1633</ele>
        <time>2020-02-20T07:49:22.552Z</time>
      </trkpt>
      <trkpt lat="45.22237" lon="6.01246">
        <ele>1634</ele>
        <time>2020-02-20T07:49:29.107Z</time>
      </trkpt>
      <trkpt lat="45.2224" lon="6.01255">
        <ele>1636</ele>
        <time>2020-02-20T07:49:39.000Z</time>
      </trkpt>
      <trkpt lat="45.22243" lon="6.01261">
        <ele>1636</ele>
        <time>2020-02-20T07:49:49.591Z</time>
      </trkpt>
      <trkpt lat="45.22244" lon="6.0127">
        <ele>1637</ele>
        <time>2020-02-20T07:49:57.000Z</time>
      </trkpt>
      <trkpt lat="45.22243" lon="6.01278">
        <ele>1639</ele>
        <time>2020-02-20T07:50:04.000Z</time>
      </trkpt>
      <trkpt lat="45.22246" lon="6.01286">
        <ele>1639</ele>
        <time>2020-02-20T07:50:11.000Z</time>
      </trkpt>
      <trkpt lat="45.22247" lon="6.01294">
        <ele>1639</ele>
        <time>2020-02-20T07:50:18.000Z</time>
      </trkpt>
      <trkpt lat="45.22249" lon="6.013">
        <ele>1639</ele>
        <time>2020-02-20T07:50:28.000Z</time>
      </trkpt>
      <trkpt lat="45.22254" lon="6.01305">
        <ele>1640</ele>
        <time>2020-02-20T07:50:37.000Z</time>
      </trkpt>
      <trkpt lat="45.22258" lon="6.01309">
        <ele>1640</ele>
        <time>2020-02-20T07:50:44.388Z</time>
      </trkpt>
      <trkpt lat="45.22261" lon="6.01313">
        <ele>1640</ele>
        <time>2020-02-20T07:50:55.000Z</time>
      </trkpt>
      <trkpt lat="45.22261" lon="6.01322">
        <ele>1641</ele>
        <time>2020-02-20T07:51:09.527Z</time>
      </trkpt>
      <trkpt lat="45.22261" lon="6.01332">
        <ele>1644</ele>
        <time>2020-02-20T07:51:15.963Z</time>
      </trkpt>
      <trkpt lat="45.22259" lon="6.01338">
        <ele>1646</ele>
        <time>2020-02-20T07:51:23.000Z</time>
      </trkpt>
      <trkpt lat="45.22256" lon="6.01344">
        <ele>1647</ele>
        <time>2020-02-20T07:51:37.000Z</time>
      </trkpt>
      <trkpt lat="45.22255" lon="6.01351">
        <ele>1648</ele>
        <time>2020-02-20T07:51:44.000Z</time>
      </trkpt>
      <trkpt lat="45.22255" lon="6.01357">
        <ele>1651</ele>
        <time>2020-02-20T07:51:50.743Z</time>
      </trkpt>
      <trkpt lat="45.22253" lon="6.01366">
        <ele>1653</ele>
        <time>2020-02-20T07:52:00.602Z</time>
      </trkpt>
      <trkpt lat="45.22248" lon="6.01372">
        <ele>1657</ele>
        <time>2020-02-20T07:52:10.000Z</time>
      </trkpt>
      <trkpt lat="45.22243" lon="6.01377">
        <ele>1659</ele>
        <time>2020-02-20T07:52:16.989Z</time>
      </trkpt>
      <trkpt lat="45.22239" lon="6.01382">
        <ele>1664</ele>
        <time>2020-02-20T07:52:26.730Z</time>
      </trkpt>
      <trkpt lat="45.22237" lon="6.01389">
        <ele>1671</ele>
        <time>2020-02-20T07:52:37.314Z</time>
      </trkpt>
      <trkpt lat="45.22236" lon="6.01395">
        <ele>1676</ele>
        <time>2020-02-20T07:52:52.000Z</time>
      </trkpt>
      <trkpt lat="45.22237" lon="6.01402">
        <ele>1678</ele>
        <time>2020-02-20T07:52:59.000Z</time>
      </trkpt>
      <trkpt lat="45.22239" lon="6.01409">
        <ele>1679</ele>
        <time>2020-02-20T07:53:06.000Z</time>
      </trkpt>
      <trkpt lat="45.22239" lon="6.01416">
        <ele>1680</ele>
        <time>2020-02-20T07:53:13.040Z</time>
      </trkpt>
      <trkpt lat="45.22241" lon="6.01424">
        <ele>1680</ele>
        <time>2020-02-20T07:53:19.496Z</time>
      </trkpt>
      <trkpt lat="45.22241" lon="6.01431">
        <ele>1680</ele>
        <time>2020-02-20T07:53:26.000Z</time>
      </trkpt>
      <trkpt lat="45.22242" lon="6.0144">
        <ele>1680</ele>
        <time>2020-02-20T07:53:32.818Z</time>
      </trkpt>
      <trkpt lat="45.22244" lon="6.01448">
        <ele>1680</ele>
        <time>2020-02-20T07:53:39.682Z</time>
      </trkpt>
      <trkpt lat="45.22246" lon="6.01457">
        <ele>1680</ele>
        <time>2020-02-20T07:53:46.000Z</time>
      </trkpt>
      <trkpt lat="45.22247" lon="6.01466">
        <ele>1680</ele>
        <time>2020-02-20T07:53:53.000Z</time>
      </trkpt>
      <trkpt lat="45.22249" lon="6.01477">
        <ele>1681</ele>
        <time>2020-02-20T07:54:00.000Z</time>
      </trkpt>
      <trkpt lat="45.2225" lon="6.01488">
        <ele>1681</ele>
        <time>2020-02-20T07:54:07.000Z</time>
      </trkpt>
      <trkpt lat="45.22253" lon="6.01499">
        <ele>1681</ele>
        <time>2020-02-20T07:54:13.596Z</time>
      </trkpt>
      <trkpt lat="45.22255" lon="6.01509">
        <ele>1681</ele>
        <time>2020-02-20T07:54:20.000Z</time>
      </trkpt>
      <trkpt lat="45.22257" lon="6.01521">
        <ele>1681</ele>
        <time>2020-02-20T07:54:26.480Z</time>
      </trkpt>
      <trkpt lat="45.22258" lon="6.01531">
        <ele>1681</ele>
        <time>2020-02-20T07:54:33.000Z</time>
      </trkpt>
      <trkpt lat="45.22259" lon="6.01542">
        <ele>1682</ele>
        <time>2020-02-20T07:54:39.604Z</time>
      </trkpt>
      <trkpt lat="45.2226" lon="6.01552">
        <ele>1682</ele>
        <time>2020-02-20T07:54:46.596Z</time>
      </trkpt>
      <trkpt lat="45.2226" lon="6.01564">
        <ele>1682</ele>
        <time>2020-02-20T07:54:53.689Z</time>
      </trkpt>
      <trkpt lat="45.2226" lon="6.01577">
        <ele>1681</ele>
        <time>2020-02-20T07:55:01.000Z</time>
      </trkpt>
      <trkpt lat="45.2226" lon="6.01584">
        <ele>1681</ele>
        <time>2020-02-20T07:55:04.434Z</time>
      </trkpt>
      <trkpt lat="45.2226" lon="6.01595">
        <ele>1680</ele>
        <time>2020-02-20T07:55:08.000Z</time>
      </trkpt>
      <trkpt lat="45.22259" lon="6.01611">
        <ele>1680</ele>
        <time>2020-02-20T07:55:11.648Z</time>
      </trkpt>
      <trkpt lat="45.22259" lon="6.01618">
        <ele>1680</ele>
        <time>2020-02-20T07:55:14.770Z</time>
      </trkpt>
      <trkpt lat="45.2226" lon="6.01627">
        <ele>1681</ele>
        <time>2020-02-20T07:55:18.372Z</time>
      </trkpt>
      <trkpt lat="45.22261" lon="6.01634">
        <ele>1681</ele>
        <time>2020-02-20T07:55:21.716Z</time>
      </trkpt>
      <trkpt lat="45.22261" lon="6.01644">
        <ele>1679</ele>
        <time>2020-02-20T07:55:28.749Z</time>
      </trkpt>
      <trkpt lat="45.22261" lon="6.01654">
        <ele>1680</ele>
        <time>2020-02-20T07:55:35.314Z</time>
      </trkpt>
      <trkpt lat="45.22262" lon="6.01666">
        <ele>1680</ele>
        <time>2020-02-20T07:55:42.000Z</time>
      </trkpt>
      <trkpt lat="45.22263" lon="6.01678">
        <ele>1680</ele>
        <time>2020-02-20T07:55:49.000Z</time>
      </trkpt>
      <trkpt lat="45.22263" lon="6.01689">
        <ele>1679</ele>
        <time>2020-02-20T07:55:55.669Z</time>
      </trkpt>
      <trkpt lat="45.22258" lon="6.01697">
        <ele>1678</ele>
        <time>2020-02-20T07:56:02.263Z</time>
      </trkpt>
      <trkpt lat="45.22253" lon="6.01701">
        <ele>1676</ele>
        <time>2020-02-20T07:56:08.701Z</time>
      </trkpt>
      <trkpt lat="45.22249" lon="6.01707">
        <ele>1675</ele>
        <time>2020-02-20T07:56:15.308Z</time>
      </trkpt>
      <trkpt lat="45.22244" lon="6.01711">
        <ele>1675</ele>
        <time>2020-02-20T07:56:21.828Z</time>
      </trkpt>
      <trkpt lat="45.22239" lon="6.01717">
        <ele>1675</ele>
        <time>2020-02-20T07:56:28.200Z</time>
      </trkpt>
      <trkpt lat="45.22235" lon="6.01725">
        <ele>1675</ele>
        <time>2020-02-20T07:56:34.728Z</time>
      </trkpt>
      <trkpt lat="45.22232" lon="6.01732">
        <ele>1675</ele>
        <time>2020-02-20T07:56:41.000Z</time>
      </trkpt>
      <trkpt lat="45.2223" lon="6.0174">
        <ele>1677</ele>
        <time>2020-02-20T07:56:47.320Z</time>
      </trkpt>
      <trkpt lat="45.22228" lon="6.01747">
        <ele>1679</ele>
        <time>2020-02-20T07:56:53.850Z</time>
      </trkpt>
      <trkpt lat="45.22229" lon="6.01753">
        <ele>1681</ele>
        <time>2020-02-20T07:57:00.586Z</time>
      </trkpt>
      <trkpt lat="45.22232" lon="6.01759">
        <ele>1681</ele>
        <time>2020-02-20T07:57:07.846Z</time>
      </trkpt>
      <trkpt lat="45.22233" lon="6.01766">
        <ele>1681</ele>
        <time>2020-02-20T07:57:11.567Z</time>
      </trkpt>
      <trkpt lat="45.22235" lon="6.01775">
        <ele>1682</ele>
        <time>2020-02-20T07:57:18.000Z</time>
      </trkpt>
      <trkpt lat="45.22237" lon="6.01784">
        <ele>1685</ele>
        <time>2020-02-20T07:57:24.461Z</time>
      </trkpt>
      <trkpt lat="45.22239" lon="6.01794">
        <ele>1688</ele>
        <time>2020-02-20T07:57:31.000Z</time>
      </trkpt>
      <trkpt lat="45.22242" lon="6.01801">
        <ele>1688</ele>
        <time>2020-02-20T07:57:36.905Z</time>
      </trkpt>
      <trkpt lat="45.22246" lon="6.01808">
        <ele>1688</ele>
        <time>2020-02-20T07:57:43.683Z</time>
      </trkpt>
      <trkpt lat="45.22247" lon="6.01817">
        <ele>1689</ele>
        <time>2020-02-20T07:57:50.000Z</time>
      </trkpt>
      <trkpt lat="45.22247" lon="6.01826">
        <ele>1693</ele>
        <time>2020-02-20T07:57:56.385Z</time>
      </trkpt>
      <trkpt lat="45.22246" lon="6.01835">
        <ele>1695</ele>
        <time>2020-02-20T07:58:03.181Z</time>
      </trkpt>
      <trkpt lat="45.22247" lon="6.01843">
        <ele>1698</ele>
        <time>2020-02-20T07:58:09.647Z</time>
      </trkpt>
      <trkpt lat="45.22247" lon="6.01852">
        <ele>1700</ele>
        <time>2020-02-20T07:58:16.000Z</time>
      </trkpt>
      <trkpt lat="45.22249" lon="6.01859">
        <ele>1701</ele>
        <time>2020-02-20T07:58:22.598Z</time>
      </trkpt>
      <trkpt lat="45.2225" lon="6.01867">
        <ele>1703</ele>
        <time>2020-02-20T07:58:29.125Z</time>
      </trkpt>
      <trkpt lat="45.2225" lon="6.01877">
        <ele>1704</ele>
        <time>2020-02-20T07:58:35.481Z</time>
      </trkpt>
      <trkpt lat="45.2225" lon="6.01884">
        <ele>1706</ele>
        <time>2020-02-20T07:58:42.000Z</time>
      </trkpt>
      <trkpt lat="45.22248" lon="6.01893">
        <ele>1708</ele>
        <time>2020-02-20T07:58:48.233Z</time>
      </trkpt>
      <trkpt lat="45.22247" lon="6.01904">
        <ele>1709</ele>
        <time>2020-02-20T07:58:56.000Z</time>
      </trkpt>
      <trkpt lat="45.22247" lon="6.01913">
        <ele>1709</ele>
        <time>2020-02-20T07:59:02.082Z</time>
      </trkpt>
      <trkpt lat="45.22246" lon="6.01925">
        <ele>1710</ele>
        <time>2020-02-20T07:59:08.834Z</time>
      </trkpt>
      <trkpt lat="45.22245" lon="6.01935">
        <ele>1710</ele>
        <time>2020-02-20T07:59:16.000Z</time>
      </trkpt>
      <trkpt lat="45.22246" lon="6.01946">
        <ele>1711</ele>
        <time>2020-02-20T07:59:21.658Z</time>
      </trkpt>
      <trkpt lat="45.22247" lon="6.01955">
        <ele>1712</ele>
        <time>2020-02-20T07:59:29.000Z</time>
      </trkpt>
      <trkpt lat="45.22248" lon="6.01963">
        <ele>1713</ele>
        <time>2020-02-20T07:59:35.020Z</time>
      </trkpt>
      <trkpt lat="45.22249" lon="6.01973">
        <ele>1723</ele>
        <time>2020-02-20T07:59:49.505Z</time>
      </trkpt>
      <trkpt lat="45.22249" lon="6.0198">
        <ele>1726</ele>
        <time>2020-02-20T07:59:56.328Z</time>
      </trkpt>
      <trkpt lat="45.22247" lon="6.0199">
        <ele>1729</ele>
        <time>2020-02-20T08:00:07.000Z</time>
      </trkpt>
      <trkpt lat="45.22245" lon="6.02">
        <ele>1730</ele>
        <time>2020-02-20T08:00:14.177Z</time>
      </trkpt>
      <trkpt lat="45.22244" lon="6.02008">
        <ele>1732</ele>
        <time>2020-02-20T08:00:21.072Z</time>
      </trkpt>
      <trkpt lat="45.22244" lon="6.02017">
        <ele>1735</ele>
        <time>2020-02-20T08:00:27.496Z</time>
      </trkpt>
      <trkpt lat="45.22244" lon="6.02024">
        <ele>1739</ele>
        <time>2020-02-20T08:00:34.133Z</time>
      </trkpt>
      <trkpt lat="45.22244" lon="6.02031">
        <ele>1740</ele>
        <time>2020-02-20T08:00:40.879Z</time>
      </trkpt>
      <trkpt lat="45.22243" lon="6.02039">
        <ele>1741</ele>
        <time>2020-02-20T08:00:48.000Z</time>
      </trkpt>
      <trkpt lat="45.22244" lon="6.02049">
        <ele>1743</ele>
        <time>2020-02-20T08:00:58.000Z</time>
      </trkpt>
      <trkpt lat="45.22248" lon="6.02055">
        <ele>1748</ele>
        <time>2020-02-20T08:01:14.000Z</time>
      </trkpt>
      <trkpt lat="45.22244" lon="6.0206">
        <ele>1749</ele>
        <time>2020-02-20T08:01:41.000Z</time>
      </trkpt>
      <trkpt lat="45.22245" lon="6.02069">
        <ele>1750</ele>
        <time>2020-02-20T08:02:12.000Z</time>
      </trkpt>
      <trkpt lat="45.22245" lon="6.02075">
        <ele>1750</ele>
        <time>2020-02-20T08:02:14.906Z</time>
      </trkpt>
      <trkpt lat="45.22245" lon="6.02087">
        <ele>1751</ele>
        <time>2020-02-20T08:02:21.574Z</time>
      </trkpt>
      <trkpt lat="45.22244" lon="6.02096">
        <ele>1750</ele>
        <time>2020-02-20T08:02:29.000Z</time>
      </trkpt>
      <trkpt lat="45.22244" lon="6.02106">
        <ele>1751</ele>
        <time>2020-02-20T08:02:35.076Z</time>
      </trkpt>
      <trkpt lat="45.22243" lon="6.02115">
        <ele>1753</ele>
        <time>2020-02-20T08:02:41.173Z</time>
      </trkpt>
      <trkpt lat="45.22243" lon="6.02125">
        <ele>1755</ele>
        <time>2020-02-20T08:02:49.000Z</time>
      </trkpt>
      <trkpt lat="45.22242" lon="6.02134">
        <ele>1755</ele>
        <time>2020-02-20T08:02:56.000Z</time>
      </trkpt>
      <trkpt lat="45.22244" lon="6.0214">
        <ele>1755</ele>
        <time>2020-02-20T08:03:01.782Z</time>
      </trkpt>
      <trkpt lat="45.22252" lon="6.02145">
        <ele>1756</ele>
        <time>2020-02-20T08:03:09.069Z</time>
      </trkpt>
      <trkpt lat="45.22255" lon="6.0215">
        <ele>1757</ele>
        <time>2020-02-20T08:03:12.880Z</time>
      </trkpt>
      <trkpt lat="45.22261" lon="6.02152">
        <ele>1760</ele>
        <time>2020-02-20T08:03:21.000Z</time>
      </trkpt>
      <trkpt lat="45.22267" lon="6.02155">
        <ele>1765</ele>
        <time>2020-02-20T08:03:28.000Z</time>
      </trkpt>
      <trkpt lat="45.22272" lon="6.02159">
        <ele>1765</ele>
        <time>2020-02-20T08:03:33.999Z</time>
      </trkpt>
      <trkpt lat="45.22277" lon="6.02161">
        <ele>1768</ele>
        <time>2020-02-20T08:03:42.000Z</time>
      </trkpt>
      <trkpt lat="45.22283" lon="6.02165">
        <ele>1766</ele>
        <time>2020-02-20T08:03:50.000Z</time>
      </trkpt>
      <trkpt lat="45.22289" lon="6.02168">
        <ele>1766</ele>
        <time>2020-02-20T08:03:57.000Z</time>
      </trkpt>
      <trkpt lat="45.22293" lon="6.02175">
        <ele>1766</ele>
        <time>2020-02-20T08:04:03.109Z</time>
      </trkpt>
      <trkpt lat="45.22296" lon="6.0218">
        <ele>1769</ele>
        <time>2020-02-20T08:04:09.516Z</time>
      </trkpt>
      <trkpt lat="45.22299" lon="6.02185">
        <ele>1773</ele>
        <time>2020-02-20T08:04:17.000Z</time>
      </trkpt>
      <trkpt lat="45.22304" lon="6.02192">
        <ele>1777</ele>
        <time>2020-02-20T08:04:27.000Z</time>
      </trkpt>
      <trkpt lat="45.22307" lon="6.02197">
        <ele>1780</ele>
        <time>2020-02-20T08:04:33.142Z</time>
      </trkpt>
      <trkpt lat="45.2231" lon="6.02203">
        <ele>1784</ele>
        <time>2020-02-20T08:04:42.919Z</time>
      </trkpt>
      <trkpt lat="45.22313" lon="6.02208">
        <ele>1786</ele>
        <time>2020-02-20T08:04:51.000Z</time>
      </trkpt>
      <trkpt lat="45.22316" lon="6.02213">
        <ele>1790</ele>
        <time>2020-02-20T08:04:58.000Z</time>
      </trkpt>
      <trkpt lat="45.22319" lon="6.0222">
        <ele>1792</ele>
        <time>2020-02-20T08:05:05.000Z</time>
      </trkpt>
      <trkpt lat="45.22322" lon="6.02225">
        <ele>1793</ele>
        <time>2020-02-20T08:05:11.099Z</time>
      </trkpt>
      <trkpt lat="45.22326" lon="6.0223">
        <ele>1795</ele>
        <time>2020-02-20T08:05:17.736Z</time>
      </trkpt>
      <trkpt lat="45.2233" lon="6.02234">
        <ele>1794</ele>
        <time>2020-02-20T08:05:25.000Z</time>
      </trkpt>
      <trkpt lat="45.22333" lon="6.0224">
        <ele>1795</ele>
        <time>2020-02-20T08:05:32.000Z</time>
      </trkpt>
      <trkpt lat="45.22335" lon="6.02246">
        <ele>1795</ele>
        <time>2020-02-20T08:05:37.984Z</time>
      </trkpt>
      <trkpt lat="45.2234" lon="6.02253">
        <ele>1797</ele>
        <time>2020-02-20T08:05:49.000Z</time>
      </trkpt>
      <trkpt lat="45.22346" lon="6.02258">
        <ele>1799</ele>
        <time>2020-02-20T08:05:56.000Z</time>
      </trkpt>
      <trkpt lat="45.2235" lon="6.02263">
        <ele>1798</ele>
        <time>2020-02-20T08:06:01.760Z</time>
      </trkpt>
      <trkpt lat="45.22354" lon="6.02267">
        <ele>1801</ele>
        <time>2020-02-20T08:06:10.000Z</time>
      </trkpt>
      <trkpt lat="45.22358" lon="6.02271">
        <ele>1801</ele>
        <time>2020-02-20T08:06:16.156Z</time>
      </trkpt>
      <trkpt lat="45.22356" lon="6.02278">
        <ele>1809</ele>
        <time>2020-02-20T08:06:29.996Z</time>
      </trkpt>
      <trkpt lat="45.22358" lon="6.02284">
        <ele>1810</ele>
        <time>2020-02-20T08:06:42.000Z</time>
      </trkpt>
      <trkpt lat="45.2236" lon="6.02292">
        <ele>1813</ele>
        <time>2020-02-20T08:06:51.059Z</time>
      </trkpt>
      <trkpt lat="45.22361" lon="6.02299">
        <ele>1813</ele>
        <time>2020-02-20T08:06:57.735Z</time>
      </trkpt>
      <trkpt lat="45.22362" lon="6.02307">
        <ele>1816</ele>
        <time>2020-02-20T08:07:09.000Z</time>
      </trkpt>
      <trkpt lat="45.22364" lon="6.02315">
        <ele>1818</ele>
        <time>2020-02-20T08:07:16.000Z</time>
      </trkpt>
      <trkpt lat="45.22368" lon="6.02322">
        <ele>1817</ele>
        <time>2020-02-20T08:07:26.000Z</time>
      </trkpt>
      <trkpt lat="45.22371" lon="6.02326">
        <ele>1817</ele>
        <time>2020-02-20T08:07:33.000Z</time>
      </trkpt>
      <trkpt lat="45.22373" lon="6.02332">
        <ele>1817</ele>
        <time>2020-02-20T08:07:38.299Z</time>
      </trkpt>
      <trkpt lat="45.22375" lon="6.0234">
        <ele>1818</ele>
        <time>2020-02-20T08:07:46.000Z</time>
      </trkpt>
      <trkpt lat="45.22376" lon="6.02347">
        <ele>1819</ele>
        <time>2020-02-20T08:07:53.000Z</time>
      </trkpt>
      <trkpt lat="45.22379" lon="6.02355">
        <ele>1823</ele>
        <time>2020-02-20T08:08:01.801Z</time>
      </trkpt>
      <trkpt lat="45.2238" lon="6.02363">
        <ele>1825</ele>
        <time>2020-02-20T08:08:08.813Z</time>
      </trkpt>
      <trkpt lat="45.22382" lon="6.02369">
        <ele>1827</ele>
        <time>2020-02-20T08:08:16.000Z</time>
      </trkpt>
      <trkpt lat="45.22386" lon="6.02375">
        <ele>1830</ele>
        <time>2020-02-20T08:08:26.000Z</time>
      </trkpt>
      <trkpt lat="45.2239" lon="6.02381">
        <ele>1837</ele>
        <time>2020-02-20T08:08:36.000Z</time>
      </trkpt>
      <trkpt lat="45.22391" lon="6.02389">
        <ele>1839</ele>
        <time>2020-02-20T08:08:45.625Z</time>
      </trkpt>
      <trkpt lat="45.22391" lon="6.02398">
        <ele>1840</ele>
        <time>2020-02-20T08:08:55.900Z</time>
      </trkpt>
      <trkpt lat="45.22393" lon="6.02404">
        <ele>1842</ele>
        <time>2020-02-20T08:09:06.174Z</time>
      </trkpt>
      <trkpt lat="45.22398" lon="6.02401">
        <ele>1842</ele>
        <time>2020-02-20T08:09:28.000Z</time>
      </trkpt>
      <trkpt lat="45.22403" lon="6.02397">
        <ele>1840</ele>
        <time>2020-02-20T08:09:38.000Z</time>
      </trkpt>
      <trkpt lat="45.22408" lon="6.02396">
        <ele>1838</ele>
        <time>2020-02-20T08:09:47.772Z</time>
      </trkpt>
      <trkpt lat="45.22411" lon="6.02404">
        <ele>1842</ele>
        <time>2020-02-20T08:09:57.914Z</time>
      </trkpt>
      <trkpt lat="45.22413" lon="6.02412">
        <ele>1848</ele>
        <time>2020-02-20T08:10:09.000Z</time>
      </trkpt>
      <trkpt lat="45.22416" lon="6.02417">
        <ele>1847</ele>
        <time>2020-02-20T08:10:16.000Z</time>
      </trkpt>
      <trkpt lat="45.22421" lon="6.02421">
        <ele>1847</ele>
        <time>2020-02-20T08:10:24.179Z</time>
      </trkpt>
      <trkpt lat="45.22423" lon="6.02431">
        <ele>1852</ele>
        <time>2020-02-20T08:10:36.000Z</time>
      </trkpt>
      <trkpt lat="45.22426" lon="6.02436">
        <ele>1854</ele>
        <time>2020-02-20T08:10:46.000Z</time>
      </trkpt>
      <trkpt lat="45.22431" lon="6.02441">
        <ele>1855</ele>
        <time>2020-02-20T08:10:58.633Z</time>
      </trkpt>
      <trkpt lat="45.22433" lon="6.02448">
        <ele>1857</ele>
        <time>2020-02-20T08:11:08.715Z</time>
      </trkpt>
      <trkpt lat="45.22437" lon="6.02455">
        <ele>1861</ele>
        <time>2020-02-20T08:11:19.298Z</time>
      </trkpt>
      <trkpt lat="45.22441" lon="6.02461">
        <ele>1863</ele>
        <time>2020-02-20T08:11:28.000Z</time>
      </trkpt>
      <trkpt lat="45.22444" lon="6.0247">
        <ele>1864</ele>
        <time>2020-02-20T08:11:37.677Z</time>
      </trkpt>
      <trkpt lat="45.22447" lon="6.02478">
        <ele>1866</ele>
        <time>2020-02-20T08:11:48.000Z</time>
      </trkpt>
      <trkpt lat="45.22452" lon="6.02481">
        <ele>1867</ele>
        <time>2020-02-20T08:12:02.000Z</time>
      </trkpt>
      <trkpt lat="45.22456" lon="6.02485">
        <ele>1866</ele>
        <time>2020-02-20T08:12:07.700Z</time>
      </trkpt>
      <trkpt lat="45.2246" lon="6.0249">
        <ele>1867</ele>
        <time>2020-02-20T08:12:15.000Z</time>
      </trkpt>
      <trkpt lat="45.22462" lon="6.02497">
        <ele>1869</ele>
        <time>2020-02-20T08:12:21.772Z</time>
      </trkpt>
      <trkpt lat="45.22465" lon="6.02504">
        <ele>1871</ele>
        <time>2020-02-20T08:12:28.735Z</time>
      </trkpt>
      <trkpt lat="45.22468" lon="6.02509">
        <ele>1876</ele>
        <time>2020-02-20T08:12:35.557Z</time>
      </trkpt>
      <trkpt lat="45.22471" lon="6.02516">
        <ele>1878</ele>
        <time>2020-02-20T08:12:45.674Z</time>
      </trkpt>
      <trkpt lat="45.22474" lon="6.02524">
        <ele>1883</ele>
        <time>2020-02-20T08:12:57.000Z</time>
      </trkpt>
      <trkpt lat="45.22479" lon="6.02528">
        <ele>1883</ele>
        <time>2020-02-20T08:13:07.000Z</time>
      </trkpt>
      <trkpt lat="45.22483" lon="6.02535">
        <ele>1887</ele>
        <time>2020-02-20T08:13:16.812Z</time>
      </trkpt>
      <trkpt lat="45.22486" lon="6.02541">
        <ele>1891</ele>
        <time>2020-02-20T08:13:23.927Z</time>
      </trkpt>
      <trkpt lat="45.22488" lon="6.02547">
        <ele>1891</ele>
        <time>2020-02-20T08:13:31.000Z</time>
      </trkpt>
      <trkpt lat="45.22491" lon="6.02554">
        <ele>1895</ele>
        <time>2020-02-20T08:13:38.000Z</time>
      </trkpt>
      <trkpt lat="45.22496" lon="6.02558">
        <ele>1897</ele>
        <time>2020-02-20T08:13:47.505Z</time>
      </trkpt>
      <trkpt lat="45.22501" lon="6.02562">
        <ele>1894</ele>
        <time>2020-02-20T08:13:59.000Z</time>
      </trkpt>
      <trkpt lat="45.22503" lon="6.02569">
        <ele>1896</ele>
        <time>2020-02-20T08:14:08.783Z</time>
      </trkpt>
      <trkpt lat="45.22508" lon="6.02575">
        <ele>1896</ele>
        <time>2020-02-20T08:14:19.907Z</time>
      </trkpt>
      <trkpt lat="45.22512" lon="6.02579">
        <ele>1895</ele>
        <time>2020-02-20T08:14:27.208Z</time>
      </trkpt>
      <trkpt lat="45.22516" lon="6.02586">
        <ele>1897</ele>
        <time>2020-02-20T08:14:37.245Z</time>
      </trkpt>
      <trkpt lat="45.22521" lon="6.02592">
        <ele>1896</ele>
        <time>2020-02-20T08:14:47.000Z</time>
      </trkpt>
      <trkpt lat="45.22524" lon="6.02597">
        <ele>1896</ele>
        <time>2020-02-20T08:14:53.005Z</time>
      </trkpt>
      <trkpt lat="45.22529" lon="6.02603">
        <ele>1901</ele>
        <time>2020-02-20T08:15:03.000Z</time>
      </trkpt>
      <trkpt lat="45.22534" lon="6.02607">
        <ele>1903</ele>
        <time>2020-02-20T08:15:10.000Z</time>
      </trkpt>
      <trkpt lat="45.22539" lon="6.0261">
        <ele>1902</ele>
        <time>2020-02-20T08:15:15.827Z</time>
      </trkpt>
      <trkpt lat="45.22543" lon="6.02614">
        <ele>1902</ele>
        <time>2020-02-20T08:15:22.861Z</time>
      </trkpt>
      <trkpt lat="45.22547" lon="6.0262">
        <ele>1904</ele>
        <time>2020-02-20T08:15:29.963Z</time>
      </trkpt>
      <trkpt lat="45.2255" lon="6.02624">
        <ele>1905</ele>
        <time>2020-02-20T08:15:37.000Z</time>
      </trkpt>
      <trkpt lat="45.22556" lon="6.02627">
        <ele>1905</ele>
        <time>2020-02-20T08:15:47.000Z</time>
      </trkpt>
      <trkpt lat="45.22561" lon="6.02632">
        <ele>1903</ele>
        <time>2020-02-20T08:15:57.000Z</time>
      </trkpt>
      <trkpt lat="45.22565" lon="6.02636">
        <ele>1904</ele>
        <time>2020-02-20T08:16:03.124Z</time>
      </trkpt>
      <trkpt lat="45.22569" lon="6.02641">
        <ele>1905</ele>
        <time>2020-02-20T08:16:17.000Z</time>
      </trkpt>
      <trkpt lat="45.22574" lon="6.02645">
        <ele>1908</ele>
        <time>2020-02-20T08:16:27.000Z</time>
      </trkpt>
      <trkpt lat="45.22579" lon="6.02649">
        <ele>1909</ele>
        <time>2020-02-20T08:16:43.000Z</time>
      </trkpt>
      <trkpt lat="45.22585" lon="6.02655">
        <ele>1909</ele>
        <time>2020-02-20T08:16:52.290Z</time>
      </trkpt>
      <trkpt lat="45.22589" lon="6.02659">
        <ele>1910</ele>
        <time>2020-02-20T08:16:59.000Z</time>
      </trkpt>
      <trkpt lat="45.22592" lon="6.02666">
        <ele>1910</ele>
        <time>2020-02-20T08:17:04.884Z</time>
      </trkpt>
      <trkpt lat="45.22595" lon="6.02675">
        <ele>1911</ele>
        <time>2020-02-20T08:17:11.868Z</time>
      </trkpt>
      <trkpt lat="45.22599" lon="6.02682">
        <ele>1913</ele>
        <time>2020-02-20T08:17:18.065Z</time>
      </trkpt>
      <trkpt lat="45.22601" lon="6.02689">
        <ele>1914</ele>
        <time>2020-02-20T08:17:24.642Z</time>
      </trkpt>
      <trkpt lat="45.22604" lon="6.02695">
        <ele>1915</ele>
        <time>2020-02-20T08:17:30.889Z</time>
      </trkpt>
      <trkpt lat="45.22606" lon="6.02701">
        <ele>1914</ele>
        <time>2020-02-20T08:17:37.305Z</time>
      </trkpt>
      <trkpt lat="45.22609" lon="6.02707">
        <ele>1915</ele>
        <time>2020-02-20T08:17:43.961Z</time>
      </trkpt>
      <trkpt lat="45.22612" lon="6.02713">
        <ele>1917</ele>
        <time>2020-02-20T08:17:50.786Z</time>
      </trkpt>
      <trkpt lat="45.22614" lon="6.02719">
        <ele>1917</ele>
        <time>2020-02-20T08:17:58.000Z</time>
      </trkpt>
      <trkpt lat="45.22617" lon="6.02725">
        <ele>1919</ele>
        <time>2020-02-20T08:18:05.000Z</time>
      </trkpt>
      <trkpt lat="45.2262" lon="6.0273">
        <ele>1919</ele>
        <time>2020-02-20T08:18:11.043Z</time>
      </trkpt>
      <trkpt lat="45.22624" lon="6.02735">
        <ele>1921</ele>
        <time>2020-02-20T08:18:18.226Z</time>
      </trkpt>
      <trkpt lat="45.22628" lon="6.02741">
        <ele>1925</ele>
        <time>2020-02-20T08:18:27.686Z</time>
      </trkpt>
      <trkpt lat="45.22633" lon="6.02743">
        <ele>1925</ele>
        <time>2020-02-20T08:18:34.988Z</time>
      </trkpt>
      <trkpt lat="45.22638" lon="6.02746">
        <ele>1930</ele>
        <time>2020-02-20T08:18:45.685Z</time>
      </trkpt>
      <trkpt lat="45.22643" lon="6.02748">
        <ele>1934</ele>
        <time>2020-02-20T08:18:57.000Z</time>
      </trkpt>
      <trkpt lat="45.22648" lon="6.02749">
        <ele>1941</ele>
        <time>2020-02-20T08:19:07.043Z</time>
      </trkpt>
      <trkpt lat="45.22653" lon="6.02751">
        <ele>1947</ele>
        <time>2020-02-20T08:19:17.368Z</time>
      </trkpt>
      <trkpt lat="45.22659" lon="6.02755">
        <ele>1950</ele>
        <time>2020-02-20T08:19:28.000Z</time>
      </trkpt>
      <trkpt lat="45.22663" lon="6.02758">
        <ele>1954</ele>
        <time>2020-02-20T08:19:31.417Z</time>
      </trkpt>
      <trkpt lat="45.22667" lon="6.02764">
        <ele>1957</ele>
        <time>2020-02-20T08:19:45.000Z</time>
      </trkpt>
      <trkpt lat="45.22671" lon="6.02768">
        <ele>1958</ele>
        <time>2020-02-20T08:19:53.336Z</time>
      </trkpt>
      <trkpt lat="45.22675" lon="6.02772">
        <ele>1960</ele>
        <time>2020-02-20T08:20:03.155Z</time>
      </trkpt>
      <trkpt lat="45.2268" lon="6.02778">
        <ele>1961</ele>
        <time>2020-02-20T08:20:15.000Z</time>
      </trkpt>
      <trkpt lat="45.22684" lon="6.02784">
        <ele>1961</ele>
        <time>2020-02-20T08:20:22.000Z</time>
      </trkpt>
      <trkpt lat="45.22687" lon="6.02791">
        <ele>1961</ele>
        <time>2020-02-20T08:20:30.026Z</time>
      </trkpt>
      <trkpt lat="45.22687" lon="6.02799">
        <ele>1961</ele>
        <time>2020-02-20T08:20:44.000Z</time>
      </trkpt>
      <trkpt lat="45.2269" lon="6.02804">
        <ele>1958</ele>
        <time>2020-02-20T08:20:47.942Z</time>
      </trkpt>
      <trkpt lat="45.22695" lon="6.02807">
        <ele>1957</ele>
        <time>2020-02-20T08:20:54.860Z</time>
      </trkpt>
      <trkpt lat="45.22699" lon="6.02814">
        <ele>1955</ele>
        <time>2020-02-20T08:21:05.323Z</time>
      </trkpt>
      <trkpt lat="45.22703" lon="6.02818">
        <ele>1958</ele>
        <time>2020-02-20T08:21:12.337Z</time>
      </trkpt>
      <trkpt lat="45.22709" lon="6.0282">
        <ele>1957</ele>
        <time>2020-02-20T08:21:28.000Z</time>
      </trkpt>
      <trkpt lat="45.22714" lon="6.02824">
        <ele>1955</ele>
        <time>2020-02-20T08:21:38.000Z</time>
      </trkpt>
      <trkpt lat="45.22719" lon="6.02825">
        <ele>1955</ele>
        <time>2020-02-20T08:21:48.000Z</time>
      </trkpt>
      <trkpt lat="45.22725" lon="6.02824">
        <ele>1952</ele>
        <time>2020-02-20T08:21:54.956Z</time>
      </trkpt>
      <trkpt lat="45.2273" lon="6.02822">
        <ele>1953</ele>
        <time>2020-02-20T08:22:05.000Z</time>
      </trkpt>
      <trkpt lat="45.22736" lon="6.0282">
        <ele>1956</ele>
        <time>2020-02-20T08:22:23.000Z</time>
      </trkpt>
      <trkpt lat="45.2274" lon="6.02818">
        <ele>1958</ele>
        <time>2020-02-20T08:22:37.000Z</time>
      </trkpt>
      <trkpt lat="45.22745" lon="6.02817">
        <ele>1959</ele>
        <time>2020-02-20T08:22:49.000Z</time>
      </trkpt>
      <trkpt lat="45.2275" lon="6.02817">
        <ele>1958</ele>
        <time>2020-02-20T08:23:00.926Z</time>
      </trkpt>
      <trkpt lat="45.22756" lon="6.02818">
        <ele>1958</ele>
        <time>2020-02-20T08:23:11.024Z</time>
      </trkpt>
      <trkpt lat="45.22761" lon="6.0282">
        <ele>1959</ele>
        <time>2020-02-20T08:23:24.000Z</time>
      </trkpt>
      <trkpt lat="45.22766" lon="6.02819">
        <ele>1957</ele>
        <time>2020-02-20T08:23:35.808Z</time>
      </trkpt>
      <trkpt lat="45.2277" lon="6.02822">
        <ele>1971</ele>
        <time>2020-02-20T08:24:14.000Z</time>
      </trkpt>
      <trkpt lat="45.22776" lon="6.02822">
        <ele>1973</ele>
        <time>2020-02-20T08:24:22.287Z</time>
      </trkpt>
      <trkpt lat="45.22782" lon="6.02825">
        <ele>1973</ele>
        <time>2020-02-20T08:24:35.268Z</time>
      </trkpt>
      <trkpt lat="45.22785" lon="6.02831">
        <ele>1973</ele>
        <time>2020-02-20T08:24:48.000Z</time>
      </trkpt>
      <trkpt lat="45.22787" lon="6.0284">
        <ele>1978</ele>
        <time>2020-02-20T08:24:59.000Z</time>
      </trkpt>
      <trkpt lat="45.22787" lon="6.02848">
        <ele>1978</ele>
        <time>2020-02-20T08:25:07.274Z</time>
      </trkpt>
      <trkpt lat="45.22788" lon="6.02854">
        <ele>1981</ele>
        <time>2020-02-20T08:25:30.000Z</time>
      </trkpt>
      <trkpt lat="45.22791" lon="6.02848">
        <ele>1997</ele>
        <time>2020-02-20T08:26:13.000Z</time>
      </trkpt>
      <trkpt lat="45.22793" lon="6.02855">
        <ele>2001</ele>
        <time>2020-02-20T08:26:38.951Z</time>
      </trkpt>
      <trkpt lat="45.22794" lon="6.02863">
        <ele>1999</ele>
        <time>2020-02-20T08:26:55.000Z</time>
      </trkpt>
      <trkpt lat="45.22796" lon="6.0287">
        <ele>1999</ele>
        <time>2020-02-20T08:27:08.000Z</time>
      </trkpt>
      <trkpt lat="45.22794" lon="6.02877">
        <ele>2006</ele>
        <time>2020-02-20T08:27:23.000Z</time>
      </trkpt>
      <trkpt lat="45.22799" lon="6.02873">
        <ele>2008</ele>
        <time>2020-02-20T08:27:58.082Z</time>
      </trkpt>
      <trkpt lat="45.22803" lon="6.0287">
        <ele>2009</ele>
        <time>2020-02-20T08:28:15.000Z</time>
      </trkpt>
      <trkpt lat="45.22808" lon="6.02867">
        <ele>2007</ele>
        <time>2020-02-20T08:28:23.000Z</time>
      </trkpt>
      <trkpt lat="45.22813" lon="6.02868">
        <ele>2009</ele>
        <time>2020-02-20T08:28:45.000Z</time>
      </trkpt>
      <trkpt lat="45.22814" lon="6.02875">
        <ele>2009</ele>
        <time>2020-02-20T08:28:58.000Z</time>
      </trkpt>
      <trkpt lat="45.22815" lon="6.02881">
        <ele>2010</ele>
        <time>2020-02-20T08:29:12.000Z</time>
      </trkpt>
      <trkpt lat="45.22815" lon="6.02888">
        <ele>2010</ele>
        <time>2020-02-20T08:29:28.376Z</time>
      </trkpt>
      <trkpt lat="45.22814" lon="6.02896">
        <ele>2013</ele>
        <time>2020-02-20T08:29:45.000Z</time>
      </trkpt>
      <trkpt lat="45.22817" lon="6.02901">
        <ele>2012</ele>
        <time>2020-02-20T08:30:20.000Z</time>
      </trkpt>
      <trkpt lat="45.22821" lon="6.029">
        <ele>2013</ele>
        <time>2020-02-20T08:30:42.384Z</time>
      </trkpt>
      <trkpt lat="45.22826" lon="6.02899">
        <ele>2013</ele>
        <time>2020-02-20T08:30:55.000Z</time>
      </trkpt>
      <trkpt lat="45.22831" lon="6.02897">
        <ele>2014</ele>
        <time>2020-02-20T08:31:09.000Z</time>
      </trkpt>
      <trkpt lat="45.22834" lon="6.02903">
        <ele>2023</ele>
        <time>2020-02-20T08:31:40.000Z</time>
      </trkpt>
      <trkpt lat="45.22836" lon="6.0291">
        <ele>2024</ele>
        <time>2020-02-20T08:31:54.000Z</time>
      </trkpt>
      <trkpt lat="45.22836" lon="6.02917">
        <ele>2026</ele>
        <time>2020-02-20T08:32:05.000Z</time>
      </trkpt>
      <trkpt lat="45.22834" lon="6.02923">
        <ele>2030</ele>
        <time>2020-02-20T08:32:15.000Z</time>
      </trkpt>
      <trkpt lat="45.22838" lon="6.02919">
        <ele>2037</ele>
        <time>2020-02-20T08:32:46.861Z</time>
      </trkpt>
      <trkpt lat="45.22842" lon="6.02915">
        <ele>2036</ele>
        <time>2020-02-20T08:33:06.220Z</time>
      </trkpt>
      <trkpt lat="45.22847" lon="6.0291">
        <ele>2035</ele>
        <time>2020-02-20T08:33:17.212Z</time>
      </trkpt>
      <trkpt lat="45.22851" lon="6.02907">
        <ele>2033</ele>
        <time>2020-02-20T08:33:26.000Z</time>
      </trkpt>
      <trkpt lat="45.22857" lon="6.02904">
        <ele>2032</ele>
        <time>2020-02-20T08:33:36.000Z</time>
      </trkpt>
      <trkpt lat="45.22863" lon="6.02901">
        <ele>2034</ele>
        <time>2020-02-20T08:34:09.000Z</time>
      </trkpt>
      <trkpt lat="45.22868" lon="6.029">
        <ele>2034</ele>
        <time>2020-02-20T08:34:19.000Z</time>
      </trkpt>
      <trkpt lat="45.22874" lon="6.029">
        <ele>2034</ele>
        <time>2020-02-20T08:34:26.000Z</time>
      </trkpt>
      <trkpt lat="45.2288" lon="6.02903">
        <ele>2033</ele>
        <time>2020-02-20T08:34:30.235Z</time>
      </trkpt>
      <trkpt lat="45.22883" lon="6.02909">
        <ele>2031</ele>
        <time>2020-02-20T08:34:40.000Z</time>
      </trkpt>
      <trkpt lat="45.22887" lon="6.02916">
        <ele>2029</ele>
        <time>2020-02-20T08:34:43.896Z</time>
      </trkpt>
      <trkpt lat="45.22891" lon="6.02919">
        <ele>2028</ele>
        <time>2020-02-20T08:34:50.073Z</time>
      </trkpt>
      <trkpt lat="45.22896" lon="6.02923">
        <ele>2029</ele>
        <time>2020-02-20T08:34:59.000Z</time>
      </trkpt>
      <trkpt lat="45.22901" lon="6.02926">
        <ele>2029</ele>
        <time>2020-02-20T08:35:06.000Z</time>
      </trkpt>
      <trkpt lat="45.22906" lon="6.0293">
        <ele>2029</ele>
        <time>2020-02-20T08:35:10.777Z</time>
      </trkpt>
      <trkpt lat="45.2291" lon="6.02934">
        <ele>2030</ele>
        <time>2020-02-20T08:35:17.344Z</time>
      </trkpt>
      <trkpt lat="45.22915" lon="6.0294">
        <ele>2031</ele>
        <time>2020-02-20T08:35:30.000Z</time>
      </trkpt>
      <trkpt lat="45.22919" lon="6.02944">
        <ele>2032</ele>
        <time>2020-02-20T08:35:35.080Z</time>
      </trkpt>
      <trkpt lat="45.22924" lon="6.02942">
        <ele>2034</ele>
        <time>2020-02-20T08:35:45.319Z</time>
      </trkpt>
      <trkpt lat="45.22929" lon="6.0294">
        <ele>2034</ele>
        <time>2020-02-20T08:35:55.000Z</time>
      </trkpt>
      <trkpt lat="45.22934" lon="6.02943">
        <ele>2036</ele>
        <time>2020-02-20T08:36:01.665Z</time>
      </trkpt>
      <trkpt lat="45.2294" lon="6.02948">
        <ele>2039</ele>
        <time>2020-02-20T08:36:09.404Z</time>
      </trkpt>
      <trkpt lat="45.22945" lon="6.0295">
        <ele>2041</ele>
        <time>2020-02-20T08:36:20.119Z</time>
      </trkpt>
      <trkpt lat="45.2295" lon="6.02947">
        <ele>2042</ele>
        <time>2020-02-20T08:36:43.130Z</time>
      </trkpt>
      <trkpt lat="45.22954" lon="6.02951">
        <ele>2043</ele>
        <time>2020-02-20T08:36:52.000Z</time>
      </trkpt>
      <trkpt lat="45.22957" lon="6.0296">
        <ele>2044</ele>
        <time>2020-02-20T08:36:59.623Z</time>
      </trkpt>
      <trkpt lat="45.22958" lon="6.02966">
        <ele>2046</ele>
        <time>2020-02-20T08:37:07.144Z</time>
      </trkpt>
      <trkpt lat="45.22961" lon="6.02973">
        <ele>2055</ele>
        <time>2020-02-20T08:37:20.000Z</time>
      </trkpt>
      <trkpt lat="45.22966" lon="6.02971">
        <ele>2060</ele>
        <time>2020-02-20T08:37:27.380Z</time>
      </trkpt>
      <trkpt lat="45.22971" lon="6.02967">
        <ele>2061</ele>
        <time>2020-02-20T08:37:37.181Z</time>
      </trkpt>
      <trkpt lat="45.22976" lon="6.02967">
        <ele>2061</ele>
        <time>2020-02-20T08:37:56.000Z</time>
      </trkpt>
      <trkpt lat="45.22982" lon="6.02965">
        <ele>2061</ele>
        <time>2020-02-20T08:38:07.706Z</time>
      </trkpt>
      <trkpt lat="45.22986" lon="6.02961">
        <ele>2060</ele>
        <time>2020-02-20T08:38:17.982Z</time>
      </trkpt>
      <trkpt lat="45.22989" lon="6.02967">
        <ele>2061</ele>
        <time>2020-02-20T08:38:37.000Z</time>
      </trkpt>
      <trkpt lat="45.22993" lon="6.02973">
        <ele>2071</ele>
        <time>2020-02-20T08:38:51.000Z</time>
      </trkpt>
      <trkpt lat="45.22996" lon="6.02977">
        <ele>2076</ele>
        <time>2020-02-20T08:38:59.104Z</time>
      </trkpt>
      <trkpt lat="45.22999" lon="6.02984">
        <ele>2083</ele>
        <time>2020-02-20T08:39:20.000Z</time>
      </trkpt>
      <trkpt lat="45.23005" lon="6.02985">
        <ele>2082</ele>
        <time>2020-02-20T08:39:34.843Z</time>
      </trkpt>
      <trkpt lat="45.2301" lon="6.02983">
        <ele>2082</ele>
        <time>2020-02-20T08:39:48.915Z</time>
      </trkpt>
      <trkpt lat="45.23013" lon="6.02978">
        <ele>2083</ele>
        <time>2020-02-20T08:40:07.000Z</time>
      </trkpt>
      <trkpt lat="45.23018" lon="6.02974">
        <ele>2082</ele>
        <time>2020-02-20T08:40:20.000Z</time>
      </trkpt>
      <trkpt lat="45.23022" lon="6.0297">
        <ele>2082</ele>
        <time>2020-02-20T08:40:31.000Z</time>
      </trkpt>
      <trkpt lat="45.23028" lon="6.02969">
        <ele>2090</ele>
        <time>2020-02-20T08:41:36.000Z</time>
      </trkpt>
      <trkpt lat="45.23032" lon="6.02974">
        <ele>2094</ele>
        <time>2020-02-20T08:41:40.930Z</time>
      </trkpt>
      <trkpt lat="45.23036" lon="6.02977">
        <ele>2098</ele>
        <time>2020-02-20T08:41:51.000Z</time>
      </trkpt>
      <trkpt lat="45.23041" lon="6.02979">
        <ele>2100</ele>
        <time>2020-02-20T08:41:58.000Z</time>
      </trkpt>
      <trkpt lat="45.23046" lon="6.02981">
        <ele>2101</ele>
        <time>2020-02-20T08:42:08.000Z</time>
      </trkpt>
      <trkpt lat="45.2305" lon="6.02984">
        <ele>2102</ele>
        <time>2020-02-20T08:42:11.804Z</time>
      </trkpt>
      <trkpt lat="45.23055" lon="6.02986">
        <ele>2104</ele>
        <time>2020-02-20T08:42:19.102Z</time>
      </trkpt>
      <trkpt lat="45.23061" lon="6.02987">
        <ele>2112</ele>
        <time>2020-02-20T08:42:35.000Z</time>
      </trkpt>
      <trkpt lat="45.23066" lon="6.02988">
        <ele>2115</ele>
        <time>2020-02-20T08:42:45.000Z</time>
      </trkpt>
      <trkpt lat="45.23072" lon="6.02988">
        <ele>2118</ele>
        <time>2020-02-20T08:42:53.300Z</time>
      </trkpt>
      <trkpt lat="45.23079" lon="6.0299">
        <ele>2121</ele>
        <time>2020-02-20T08:43:04.116Z</time>
      </trkpt>
      <trkpt lat="45.23083" lon="6.02992">
        <ele>2123</ele>
        <time>2020-02-20T08:43:10.910Z</time>
      </trkpt>
      <trkpt lat="45.2309" lon="6.02996">
        <ele>2124</ele>
        <time>2020-02-20T08:43:23.000Z</time>
      </trkpt>
      <trkpt lat="45.23094" lon="6.02999">
        <ele>2125</ele>
        <time>2020-02-20T08:43:24.181Z</time>
      </trkpt>
      <trkpt lat="45.23099" lon="6.03002">
        <ele>2125</ele>
        <time>2020-02-20T08:43:33.000Z</time>
      </trkpt>
      <trkpt lat="45.23105" lon="6.03006">
        <ele>2126</ele>
        <time>2020-02-20T08:43:40.000Z</time>
      </trkpt>
      <trkpt lat="45.23109" lon="6.03008">
        <ele>2126</ele>
        <time>2020-02-20T08:43:48.446Z</time>
      </trkpt>
      <trkpt lat="45.23114" lon="6.03007">
        <ele>2126</ele>
        <time>2020-02-20T08:43:55.103Z</time>
      </trkpt>
      <trkpt lat="45.2312" lon="6.03008">
        <ele>2125</ele>
        <time>2020-02-20T08:44:01.899Z</time>
      </trkpt>
      <trkpt lat="45.23125" lon="6.03015">
        <ele>2125</ele>
        <time>2020-02-20T08:44:11.000Z</time>
      </trkpt>
      <trkpt lat="45.2313" lon="6.03019">
        <ele>2126</ele>
        <time>2020-02-20T08:44:14.154Z</time>
      </trkpt>
      <trkpt lat="45.23136" lon="6.0302">
        <ele>2125</ele>
        <time>2020-02-20T08:44:21.073Z</time>
      </trkpt>
      <trkpt lat="45.23142" lon="6.03018">
        <ele>2124</ele>
        <time>2020-02-20T08:44:31.000Z</time>
      </trkpt>
      <trkpt lat="45.23147" lon="6.0302">
        <ele>2121</ele>
        <time>2020-02-20T08:44:34.716Z</time>
      </trkpt>
      <trkpt lat="45.23153" lon="6.03023">
        <ele>2122</ele>
        <time>2020-02-20T08:44:41.035Z</time>
      </trkpt>
      <trkpt lat="45.23159" lon="6.03027">
        <ele>2121</ele>
        <time>2020-02-20T08:44:51.000Z</time>
      </trkpt>
      <trkpt lat="45.23165" lon="6.03029">
        <ele>2120</ele>
        <time>2020-02-20T08:44:58.000Z</time>
      </trkpt>
      <trkpt lat="45.2317" lon="6.03031">
        <ele>2120</ele>
        <time>2020-02-20T08:45:02.056Z</time>
      </trkpt>
      <trkpt lat="45.23175" lon="6.03032">
        <ele>2119</ele>
        <time>2020-02-20T08:45:08.880Z</time>
      </trkpt>
      <trkpt lat="45.2318" lon="6.03033">
        <ele>2119</ele>
        <time>2020-02-20T08:45:18.000Z</time>
      </trkpt>
      <trkpt lat="45.23185" lon="6.03033">
        <ele>2120</ele>
        <time>2020-02-20T08:45:21.215Z</time>
      </trkpt>
      <trkpt lat="45.23191" lon="6.03033">
        <ele>2121</ele>
        <time>2020-02-20T08:45:28.593Z</time>
      </trkpt>
      <trkpt lat="45.23197" lon="6.03033">
        <ele>2119</ele>
        <time>2020-02-20T08:45:38.000Z</time>
      </trkpt>
      <trkpt lat="45.23203" lon="6.0303">
        <ele>2121</ele>
        <time>2020-02-20T08:45:41.823Z</time>
      </trkpt>
      <trkpt lat="45.23209" lon="6.03028">
        <ele>2120</ele>
        <time>2020-02-20T08:45:51.130Z</time>
      </trkpt>
      <trkpt lat="45.23215" lon="6.03026">
        <ele>2119</ele>
        <time>2020-02-20T08:45:58.374Z</time>
      </trkpt>
      <trkpt lat="45.2322" lon="6.03024">
        <ele>2117</ele>
        <time>2020-02-20T08:46:08.000Z</time>
      </trkpt>
      <trkpt lat="45.23225" lon="6.03022">
        <ele>2116</ele>
        <time>2020-02-20T08:46:12.718Z</time>
      </trkpt>
      <trkpt lat="45.2323" lon="6.03021">
        <ele>2115</ele>
        <time>2020-02-20T08:46:19.475Z</time>
      </trkpt>
      <trkpt lat="45.23235" lon="6.03018">
        <ele>2115</ele>
        <time>2020-02-20T08:46:26.074Z</time>
      </trkpt>
      <trkpt lat="45.23241" lon="6.03015">
        <ele>2114</ele>
        <time>2020-02-20T08:46:36.000Z</time>
      </trkpt>
      <trkpt lat="45.23245" lon="6.03012">
        <ele>2114</ele>
        <time>2020-02-20T08:46:40.098Z</time>
      </trkpt>
      <trkpt lat="45.2325" lon="6.03011">
        <ele>2115</ele>
        <time>2020-02-20T08:46:46.452Z</time>
      </trkpt>
      <trkpt lat="45.23255" lon="6.03011">
        <ele>2116</ele>
        <time>2020-02-20T08:46:52.977Z</time>
      </trkpt>
      <trkpt lat="45.23261" lon="6.0301">
        <ele>2117</ele>
        <time>2020-02-20T08:47:05.000Z</time>
      </trkpt>
      <trkpt lat="45.23266" lon="6.03009">
        <ele>2118</ele>
        <time>2020-02-20T08:47:12.000Z</time>
      </trkpt>
      <trkpt lat="45.23271" lon="6.0301">
        <ele>2121</ele>
        <time>2020-02-20T08:47:17.120Z</time>
      </trkpt>
      <trkpt lat="45.23278" lon="6.03012">
        <ele>2123</ele>
        <time>2020-02-20T08:47:27.199Z</time>
      </trkpt>
      <trkpt lat="45.23284" lon="6.03014">
        <ele>2126</ele>
        <time>2020-02-20T08:47:35.038Z</time>
      </trkpt>
      <trkpt lat="45.2329" lon="6.03013">
        <ele>2126</ele>
        <time>2020-02-20T08:47:41.734Z</time>
      </trkpt>
      <trkpt lat="45.23298" lon="6.03014">
        <ele>2130</ele>
        <time>2020-02-20T08:47:55.000Z</time>
      </trkpt>
      <trkpt lat="45.23303" lon="6.03012">
        <ele>2133</ele>
        <time>2020-02-20T08:47:58.364Z</time>
      </trkpt>
      <trkpt lat="45.23309" lon="6.03011">
        <ele>2141</ele>
        <time>2020-02-20T08:48:09.000Z</time>
      </trkpt>
      <trkpt lat="45.23313" lon="6.0301">
        <ele>2148</ele>
        <time>2020-02-20T08:48:15.000Z</time>
      </trkpt>
      <trkpt lat="45.23321" lon="6.03008">
        <ele>2153</ele>
        <time>2020-02-20T08:48:22.072Z</time>
      </trkpt>
      <trkpt lat="45.23327" lon="6.0301">
        <ele>2156</ele>
        <time>2020-02-20T08:48:31.000Z</time>
      </trkpt>
      <trkpt lat="45.23334" lon="6.03012">
        <ele>2157</ele>
        <time>2020-02-20T08:48:34.771Z</time>
      </trkpt>
      <trkpt lat="45.23341" lon="6.03012">
        <ele>2160</ele>
        <time>2020-02-20T08:48:42.053Z</time>
      </trkpt>
      <trkpt lat="45.23346" lon="6.03012">
        <ele>2160</ele>
        <time>2020-02-20T08:48:48.631Z</time>
      </trkpt>
      <trkpt lat="45.2335" lon="6.03011">
        <ele>2164</ele>
        <time>2020-02-20T08:49:02.716Z</time>
      </trkpt>
      <trkpt lat="45.23356" lon="6.03007">
        <ele>2164</ele>
        <time>2020-02-20T08:49:09.610Z</time>
      </trkpt>
      <trkpt lat="45.23361" lon="6.03006">
        <ele>2165</ele>
        <time>2020-02-20T08:49:16.356Z</time>
      </trkpt>
      <trkpt lat="45.23366" lon="6.03005">
        <ele>2166</ele>
        <time>2020-02-20T08:49:22.417Z</time>
      </trkpt>
      <trkpt lat="45.23371" lon="6.03006">
        <ele>2167</ele>
        <time>2020-02-20T08:49:29.329Z</time>
      </trkpt>
      <trkpt lat="45.23377" lon="6.03005">
        <ele>2168</ele>
        <time>2020-02-20T08:49:42.000Z</time>
      </trkpt>
      <trkpt lat="45.23382" lon="6.03005">
        <ele>2169</ele>
        <time>2020-02-20T08:49:45.574Z</time>
      </trkpt>
      <trkpt lat="45.23387" lon="6.03006">
        <ele>2172</ele>
        <time>2020-02-20T08:49:55.000Z</time>
      </trkpt>
      <trkpt lat="45.23393" lon="6.03006">
        <ele>2173</ele>
        <time>2020-02-20T08:49:59.043Z</time>
      </trkpt>
      <trkpt lat="45.23398" lon="6.03004">
        <ele>2175</ele>
        <time>2020-02-20T08:50:09.000Z</time>
      </trkpt>
      <trkpt lat="45.23404" lon="6.03001">
        <ele>2177</ele>
        <time>2020-02-20T08:50:15.886Z</time>
      </trkpt>
      <trkpt lat="45.23409" lon="6.02999">
        <ele>2178</ele>
        <time>2020-02-20T08:50:23.000Z</time>
      </trkpt>
      <trkpt lat="45.23415" lon="6.02995">
        <ele>2180</ele>
        <time>2020-02-20T08:50:31.836Z</time>
      </trkpt>
      <trkpt lat="45.2342" lon="6.02995">
        <ele>2186</ele>
        <time>2020-02-20T08:50:52.000Z</time>
      </trkpt>
      <trkpt lat="45.23425" lon="6.02993">
        <ele>2205</ele>
        <time>2020-02-20T08:51:52.000Z</time>
      </trkpt>
      <trkpt lat="45.2343" lon="6.02991">
        <ele>2211</ele>
        <time>2020-02-20T08:54:04.000Z</time>
      </trkpt>
      <trkpt lat="45.23435" lon="6.0299">
        <ele>2210</ele>
        <time>2020-02-20T08:54:39.000Z</time>
      </trkpt>
      <trkpt lat="45.2344" lon="6.02996">
        <ele>2209</ele>
        <time>2020-02-20T08:55:12.000Z</time>
      </trkpt>
      <trkpt lat="45.23445" lon="6.02996">
        <ele>2206</ele>
        <time>2020-02-20T08:55:19.000Z</time>
      </trkpt>
      <trkpt lat="45.23455" lon="6.02998">
        <ele>2208</ele>
        <time>2020-02-20T08:55:24.721Z</time>
      </trkpt>
      <trkpt lat="45.23461" lon="6.03">
        <ele>2207</ele>
        <time>2020-02-20T08:55:28.134Z</time>
      </trkpt>
      <trkpt lat="45.23467" lon="6.03001">
        <ele>2209</ele>
        <time>2020-02-20T08:55:35.076Z</time>
      </trkpt>
      <trkpt lat="45.23473" lon="6.03003">
        <ele>2211</ele>
        <time>2020-02-20T08:55:42.000Z</time>
      </trkpt>
      <trkpt lat="45.23479" lon="6.03004">
        <ele>2212</ele>
        <time>2020-02-20T08:55:49.000Z</time>
      </trkpt>
      <trkpt lat="45.23486" lon="6.03005">
        <ele>2212</ele>
        <time>2020-02-20T08:55:56.000Z</time>
      </trkpt>
      <trkpt lat="45.23491" lon="6.03006">
        <ele>2214</ele>
        <time>2020-02-20T08:56:03.000Z</time>
      </trkpt>
      <trkpt lat="45.23495" lon="6.03009">
        <ele>2215</ele>
        <time>2020-02-20T08:56:20.000Z</time>
      </trkpt>
      <trkpt lat="45.235" lon="6.03017">
        <ele>2215</ele>
        <time>2020-02-20T08:56:27.264Z</time>
      </trkpt>
      <trkpt lat="45.23508" lon="6.03023">
        <ele>2211</ele>
        <time>2020-02-20T08:56:34.626Z</time>
      </trkpt>
      <trkpt lat="45.23517" lon="6.03029">
        <ele>2214</ele>
        <time>2020-02-20T08:56:42.505Z</time>
      </trkpt>
      <trkpt lat="45.23524" lon="6.03033">
        <ele>2215</ele>
        <time>2020-02-20T08:56:48.824Z</time>
      </trkpt>
      <trkpt lat="45.2353" lon="6.03037">
        <ele>2214</ele>
        <time>2020-02-20T08:56:55.767Z</time>
      </trkpt>
      <trkpt lat="45.23536" lon="6.03041">
        <ele>2212</ele>
        <time>2020-02-20T08:57:02.024Z</time>
      </trkpt>
      <trkpt lat="45.23542" lon="6.03043">
        <ele>2212</ele>
        <time>2020-02-20T08:57:09.000Z</time>
      </trkpt>
      <trkpt lat="45.23547" lon="6.03044">
        <ele>2212</ele>
        <time>2020-02-20T08:57:15.158Z</time>
      </trkpt>
      <trkpt lat="45.23551" lon="6.03044">
        <ele>2213</ele>
        <time>2020-02-20T08:57:21.683Z</time>
      </trkpt>
      <trkpt lat="45.23556" lon="6.03043">
        <ele>2211</ele>
        <time>2020-02-20T08:57:28.560Z</time>
      </trkpt>
      <trkpt lat="45.23563" lon="6.03043">
        <ele>2210</ele>
        <time>2020-02-20T08:57:35.821Z</time>
      </trkpt>
      <trkpt lat="45.23568" lon="6.03044">
        <ele>2208</ele>
        <time>2020-02-20T08:57:42.826Z</time>
      </trkpt>
      <trkpt lat="45.23574" lon="6.03045">
        <ele>2208</ele>
        <time>2020-02-20T08:57:50.000Z</time>
      </trkpt>
      <trkpt lat="45.23579" lon="6.03045">
        <ele>2208</ele>
        <time>2020-02-20T08:58:04.761Z</time>
      </trkpt>
      <trkpt lat="45.23585" lon="6.03047">
        <ele>2210</ele>
        <time>2020-02-20T08:58:15.258Z</time>
      </trkpt>
      <trkpt lat="45.23592" lon="6.0305">
        <ele>2212</ele>
        <time>2020-02-20T08:58:26.004Z</time>
      </trkpt>
      <trkpt lat="45.23597" lon="6.0305">
        <ele>2214</ele>
        <time>2020-02-20T08:58:37.000Z</time>
      </trkpt>
      <trkpt lat="45.23603" lon="6.03048">
        <ele>2222</ele>
        <time>2020-02-20T08:59:10.777Z</time>
      </trkpt>
      <trkpt lat="45.23609" lon="6.03047">
        <ele>2220</ele>
        <time>2020-02-20T08:59:18.000Z</time>
      </trkpt>
      <trkpt lat="45.23615" lon="6.03049">
        <ele>2221</ele>
        <time>2020-02-20T08:59:23.675Z</time>
      </trkpt>
      <trkpt lat="45.2362" lon="6.03053">
        <ele>2220</ele>
        <time>2020-02-20T08:59:30.158Z</time>
      </trkpt>
      <trkpt lat="45.23624" lon="6.03057">
        <ele>2221</ele>
        <time>2020-02-20T08:59:36.234Z</time>
      </trkpt>
      <trkpt lat="45.23629" lon="6.03062">
        <ele>2220</ele>
        <time>2020-02-20T08:59:44.000Z</time>
      </trkpt>
      <trkpt lat="45.23634" lon="6.03066">
        <ele>2221</ele>
        <time>2020-02-20T08:59:51.000Z</time>
      </trkpt>
      <trkpt lat="45.2364" lon="6.03068">
        <ele>2223</ele>
        <time>2020-02-20T08:59:57.983Z</time>
      </trkpt>
      <trkpt lat="45.23645" lon="6.03069">
        <ele>2227</ele>
        <time>2020-02-20T09:00:06.000Z</time>
      </trkpt>
      <trkpt lat="45.23651" lon="6.0307">
        <ele>2230</ele>
        <time>2020-02-20T09:00:14.774Z</time>
      </trkpt>
      <trkpt lat="45.23656" lon="6.03074">
        <ele>2230</ele>
        <time>2020-02-20T09:00:24.913Z</time>
      </trkpt>
      <trkpt lat="45.23661" lon="6.03079">
        <ele>2230</ele>
        <time>2020-02-20T09:00:36.000Z</time>
      </trkpt>
      <trkpt lat="45.23665" lon="6.03085">
        <ele>2232</ele>
        <time>2020-02-20T09:00:46.000Z</time>
      </trkpt>
      <trkpt lat="45.23668" lon="6.03089">
        <ele>2236</ele>
        <time>2020-02-20T09:01:03.000Z</time>
      </trkpt>
      <trkpt lat="45.23673" lon="6.03093">
        <ele>2238</ele>
        <time>2020-02-20T09:01:12.000Z</time>
      </trkpt>
      <trkpt lat="45.23678" lon="6.03095">
        <ele>2242</ele>
        <time>2020-02-20T09:01:23.823Z</time>
      </trkpt>
      <trkpt lat="45.23683" lon="6.03098">
        <ele>2245</ele>
        <time>2020-02-20T09:01:34.000Z</time>
      </trkpt>
      <trkpt lat="45.23688" lon="6.03101">
        <ele>2247</ele>
        <time>2020-02-20T09:01:44.000Z</time>
      </trkpt>
      <trkpt lat="45.23694" lon="6.03103">
        <ele>2250</ele>
        <time>2020-02-20T09:01:53.980Z</time>
      </trkpt>
      <trkpt lat="45.23698" lon="6.03105">
        <ele>2258</ele>
        <time>2020-02-20T09:02:08.117Z</time>
      </trkpt>
      <trkpt lat="45.23703" lon="6.03107">
        <ele>2258</ele>
        <time>2020-02-20T09:02:23.000Z</time>
      </trkpt>
      <trkpt lat="45.23706" lon="6.03115">
        <ele>2263</ele>
        <time>2020-02-20T09:02:48.315Z</time>
      </trkpt>
      <trkpt lat="45.2371" lon="6.0312">
        <ele>2266</ele>
        <time>2020-02-20T09:02:59.072Z</time>
      </trkpt>
      <trkpt lat="45.23714" lon="6.03128">
        <ele>2272</ele>
        <time>2020-02-20T09:03:08.832Z</time>
      </trkpt>
      <trkpt lat="45.23717" lon="6.03134">
        <ele>2276</ele>
        <time>2020-02-20T09:03:20.000Z</time>
      </trkpt>
      <trkpt lat="45.2372" lon="6.0314">
        <ele>2276</ele>
        <time>2020-02-20T09:03:27.000Z</time>
      </trkpt>
      <trkpt lat="45.23723" lon="6.03148">
        <ele>2276</ele>
        <time>2020-02-20T09:03:38.000Z</time>
      </trkpt>
      <trkpt lat="45.23725" lon="6.03154">
        <ele>2278</ele>
        <time>2020-02-20T09:03:48.147Z</time>
      </trkpt>
      <trkpt lat="45.23723" lon="6.03162">
        <ele>2281</ele>
        <time>2020-02-20T09:04:06.098Z</time>
      </trkpt>
      <trkpt lat="45.23726" lon="6.03168">
        <ele>2283</ele>
        <time>2020-02-20T09:04:17.000Z</time>
      </trkpt>
      <trkpt lat="45.23731" lon="6.03173">
        <ele>2281</ele>
        <time>2020-02-20T09:04:50.493Z</time>
      </trkpt>
      <trkpt lat="45.23736" lon="6.03177">
        <ele>2283</ele>
        <time>2020-02-20T09:05:07.523Z</time>
      </trkpt>
      <trkpt lat="45.23741" lon="6.03174">
        <ele>2285</ele>
        <time>2020-02-20T09:05:18.000Z</time>
      </trkpt>
      <trkpt lat="45.23746" lon="6.03176">
        <ele>2290</ele>
        <time>2020-02-20T09:05:35.000Z</time>
      </trkpt>
      <trkpt lat="45.23749" lon="6.03182">
        <ele>2293</ele>
        <time>2020-02-20T09:05:48.000Z</time>
      </trkpt>
      <trkpt lat="45.23753" lon="6.03188">
        <ele>2297</ele>
        <time>2020-02-20T09:06:06.002Z</time>
      </trkpt>
      <trkpt lat="45.23757" lon="6.03186">
        <ele>2298</ele>
        <time>2020-02-20T09:06:19.475Z</time>
      </trkpt>
      <trkpt lat="45.23761" lon="6.03191">
        <ele>2299</ele>
        <time>2020-02-20T09:06:32.631Z</time>
      </trkpt>
      <trkpt lat="45.23764" lon="6.03197">
        <ele>2299</ele>
        <time>2020-02-20T09:06:46.082Z</time>
      </trkpt>
      <trkpt lat="45.23767" lon="6.03201">
        <ele>2299</ele>
        <time>2020-02-20T09:06:57.914Z</time>
      </trkpt>
      <trkpt lat="45.23771" lon="6.03204">
        <ele>2298</ele>
        <time>2020-02-20T09:07:10.000Z</time>
      </trkpt>
      <trkpt lat="45.23777" lon="6.03205">
        <ele>2302</ele>
        <time>2020-02-20T09:07:20.000Z</time>
      </trkpt>
      <trkpt lat="45.23781" lon="6.03208">
        <ele>2301</ele>
        <time>2020-02-20T09:07:26.046Z</time>
      </trkpt>
      <trkpt lat="45.23789" lon="6.03211">
        <ele>2304</ele>
        <time>2020-02-20T09:07:37.000Z</time>
      </trkpt>
      <trkpt lat="45.23794" lon="6.03211">
        <ele>2306</ele>
        <time>2020-02-20T09:07:44.000Z</time>
      </trkpt>
      <trkpt lat="45.23799" lon="6.03212">
        <ele>2305</ele>
        <time>2020-02-20T09:07:50.718Z</time>
      </trkpt>
      <trkpt lat="45.23804" lon="6.03214">
        <ele>2307</ele>
        <time>2020-02-20T09:07:57.535Z</time>
      </trkpt>
      <trkpt lat="45.2381" lon="6.03217">
        <ele>2308</ele>
        <time>2020-02-20T09:08:07.716Z</time>
      </trkpt>
      <trkpt lat="45.23816" lon="6.03222">
        <ele>2314</ele>
        <time>2020-02-20T09:08:25.000Z</time>
      </trkpt>
      <trkpt lat="45.2382" lon="6.03221">
        <ele>2311</ele>
        <time>2020-02-20T09:08:31.778Z</time>
      </trkpt>
      <trkpt lat="45.23825" lon="6.03222">
        <ele>2311</ele>
        <time>2020-02-20T09:08:43.000Z</time>
      </trkpt>
      <trkpt lat="45.2383" lon="6.03226">
        <ele>2313</ele>
        <time>2020-02-20T09:08:53.000Z</time>
      </trkpt>
      <trkpt lat="45.23832" lon="6.03232">
        <ele>2317</ele>
        <time>2020-02-20T09:09:03.000Z</time>
      </trkpt>
      <trkpt lat="45.23835" lon="6.03237">
        <ele>2317</ele>
        <time>2020-02-20T09:09:09.657Z</time>
      </trkpt>
      <trkpt lat="45.2384" lon="6.03243">
        <ele>2318</ele>
        <time>2020-02-20T09:09:16.700Z</time>
      </trkpt>
      <trkpt lat="45.23843" lon="6.03249">
        <ele>2318</ele>
        <time>2020-02-20T09:09:24.038Z</time>
      </trkpt>
      <trkpt lat="45.23845" lon="6.03258">
        <ele>2315</ele>
        <time>2020-02-20T09:09:35.000Z</time>
      </trkpt>
      <trkpt lat="45.23848" lon="6.03266">
        <ele>2316</ele>
        <time>2020-02-20T09:09:45.000Z</time>
      </trkpt>
      <trkpt lat="45.23852" lon="6.03272">
        <ele>2316</ele>
        <time>2020-02-20T09:09:58.798Z</time>
      </trkpt>
      <trkpt lat="45.23854" lon="6.03278">
        <ele>2316</ele>
        <time>2020-02-20T09:10:07.000Z</time>
      </trkpt>
      <trkpt lat="45.23858" lon="6.03283">
        <ele>2315</ele>
        <time>2020-02-20T09:10:13.000Z</time>
      </trkpt>
      <trkpt lat="45.23863" lon="6.03288">
        <ele>2314</ele>
        <time>2020-02-20T09:10:23.000Z</time>
      </trkpt>
      <trkpt lat="45.23866" lon="6.03293">
        <ele>2310</ele>
        <time>2020-02-20T09:10:29.170Z</time>
      </trkpt>
      <trkpt lat="45.23868" lon="6.03301">
        <ele>2308</ele>
        <time>2020-02-20T09:10:36.000Z</time>
      </trkpt>
      <trkpt lat="45.23869" lon="6.03309">
        <ele>2307</ele>
        <time>2020-02-20T09:10:42.079Z</time>
      </trkpt>
      <trkpt lat="45.23872" lon="6.03315">
        <ele>2303</ele>
        <time>2020-02-20T09:10:50.000Z</time>
      </trkpt>
      <trkpt lat="45.23872" lon="6.03323">
        <ele>2305</ele>
        <time>2020-02-20T09:11:11.156Z</time>
      </trkpt>
      <trkpt lat="45.23877" lon="6.03329">
        <ele>2304</ele>
        <time>2020-02-20T09:11:29.000Z</time>
      </trkpt>
      <trkpt lat="45.23882" lon="6.03333">
        <ele>2307</ele>
        <time>2020-02-20T09:11:38.846Z</time>
      </trkpt>
      <trkpt lat="45.23882" lon="6.03341">
        <ele>2318</ele>
        <time>2020-02-20T09:12:24.117Z</time>
      </trkpt>
      <trkpt lat="45.23884" lon="6.03347">
        <ele>2314</ele>
        <time>2020-02-20T09:12:31.785Z</time>
      </trkpt>
      <trkpt lat="45.23887" lon="6.03353">
        <ele>2314</ele>
        <time>2020-02-20T09:12:43.000Z</time>
      </trkpt>
      <trkpt lat="45.23889" lon="6.03361">
        <ele>2315</ele>
        <time>2020-02-20T09:12:54.000Z</time>
      </trkpt>
      <trkpt lat="45.23894" lon="6.03355">
        <ele>2331</ele>
        <time>2020-02-20T09:13:45.722Z</time>
      </trkpt>
      <trkpt lat="45.23898" lon="6.0335">
        <ele>2337</ele>
        <time>2020-02-20T09:13:54.000Z</time>
      </trkpt>
      <trkpt lat="45.239" lon="6.03345">
        <ele>2342</ele>
        <time>2020-02-20T09:14:05.000Z</time>
      </trkpt>
      <trkpt lat="45.23904" lon="6.0335">
        <ele>2343</ele>
        <time>2020-02-20T09:14:20.674Z</time>
      </trkpt>
      <trkpt lat="45.23905" lon="6.03357">
        <ele>2337</ele>
        <time>2020-02-20T09:14:37.000Z</time>
      </trkpt>
      <trkpt lat="45.23903" lon="6.03366">
        <ele>2336</ele>
        <time>2020-02-20T09:14:51.235Z</time>
      </trkpt>
      <trkpt lat="45.23903" lon="6.03373">
        <ele>2337</ele>
        <time>2020-02-20T09:15:00.578Z</time>
      </trkpt>
      <trkpt lat="45.23904" lon="6.03379">
        <ele>2338</ele>
        <time>2020-02-20T09:15:13.828Z</time>
      </trkpt>
      <trkpt lat="45.23904" lon="6.03387">
        <ele>2337</ele>
        <time>2020-02-20T09:15:32.000Z</time>
      </trkpt>
      <trkpt lat="45.23909" lon="6.03385">
        <ele>2340</ele>
        <time>2020-02-20T09:15:53.000Z</time>
      </trkpt>
      <trkpt lat="45.23913" lon="6.0338">
        <ele>2342</ele>
        <time>2020-02-20T09:16:08.000Z</time>
      </trkpt>
      <trkpt lat="45.23918" lon="6.03376">
        <ele>2346</ele>
        <time>2020-02-20T09:16:19.000Z</time>
      </trkpt>
      <trkpt lat="45.23921" lon="6.03372">
        <ele>2349</ele>
        <time>2020-02-20T09:16:29.906Z</time>
      </trkpt>
      <trkpt lat="45.23924" lon="6.03379">
        <ele>2347</ele>
        <time>2020-02-20T09:16:54.000Z</time>
      </trkpt>
      <trkpt lat="45.23924" lon="6.03385">
        <ele>2347</ele>
        <time>2020-02-20T09:17:09.000Z</time>
      </trkpt>
      <trkpt lat="45.23925" lon="6.03392">
        <ele>2344</ele>
        <time>2020-02-20T09:17:45.000Z</time>
      </trkpt>
      <trkpt lat="45.23925" lon="6.03401">
        <ele>2345</ele>
        <time>2020-02-20T09:17:58.000Z</time>
      </trkpt>
      <trkpt lat="45.23925" lon="6.03408">
        <ele>2348</ele>
        <time>2020-02-20T09:18:05.000Z</time>
      </trkpt>
      <trkpt lat="45.23931" lon="6.03408">
        <ele>2357</ele>
        <time>2020-02-20T09:18:36.000Z</time>
      </trkpt>
      <trkpt lat="45.23935" lon="6.03404">
        <ele>2360</ele>
        <time>2020-02-20T09:18:45.556Z</time>
      </trkpt>
      <trkpt lat="45.23938" lon="6.03399">
        <ele>2366</ele>
        <time>2020-02-20T09:19:04.000Z</time>
      </trkpt>
      <trkpt lat="45.23943" lon="6.03394">
        <ele>2369</ele>
        <time>2020-02-20T09:19:15.000Z</time>
      </trkpt>
      <trkpt lat="45.23948" lon="6.0339">
        <ele>2373</ele>
        <time>2020-02-20T09:19:26.000Z</time>
      </trkpt>
      <trkpt lat="45.23951" lon="6.03395">
        <ele>2372</ele>
        <time>2020-02-20T09:19:57.000Z</time>
      </trkpt>
      <trkpt lat="45.23952" lon="6.03403">
        <ele>2370</ele>
        <time>2020-02-20T09:20:07.000Z</time>
      </trkpt>
      <trkpt lat="45.23949" lon="6.0341">
        <ele>2368</ele>
        <time>2020-02-20T09:20:21.000Z</time>
      </trkpt>
      <trkpt lat="45.23951" lon="6.03417">
        <ele>2369</ele>
        <time>2020-02-20T09:20:36.000Z</time>
      </trkpt>
      <trkpt lat="45.23955" lon="6.03414">
        <ele>2374</ele>
        <time>2020-02-20T09:20:51.882Z</time>
      </trkpt>
      <trkpt lat="45.23961" lon="6.03407">
        <ele>2380</ele>
        <time>2020-02-20T09:21:05.637Z</time>
      </trkpt>
      <trkpt lat="45.23965" lon="6.03402">
        <ele>2382</ele>
        <time>2020-02-20T09:21:16.492Z</time>
      </trkpt>
      <trkpt lat="45.23968" lon="6.03396">
        <ele>2388</ele>
        <time>2020-02-20T09:21:28.000Z</time>
      </trkpt>
      <trkpt lat="45.23966" lon="6.03403">
        <ele>2383</ele>
        <time>2020-02-20T09:21:54.166Z</time>
      </trkpt>
      <trkpt lat="45.23966" lon="6.0341">
        <ele>2383</ele>
        <time>2020-02-20T09:22:05.021Z</time>
      </trkpt>
      <trkpt lat="45.23966" lon="6.03418">
        <ele>2382</ele>
        <time>2020-02-20T09:22:18.024Z</time>
      </trkpt>
      <trkpt lat="45.23967" lon="6.03426">
        <ele>2380</ele>
        <time>2020-02-20T09:22:28.839Z</time>
      </trkpt>
      <trkpt lat="45.23967" lon="6.03433">
        <ele>2382</ele>
        <time>2020-02-20T09:22:37.000Z</time>
      </trkpt>
      <trkpt lat="45.23967" lon="6.0344">
        <ele>2381</ele>
        <time>2020-02-20T09:22:48.000Z</time>
      </trkpt>
      <trkpt lat="45.23972" lon="6.03441">
        <ele>2381</ele>
        <time>2020-02-20T09:23:06.000Z</time>
      </trkpt>
      <trkpt lat="45.23973" lon="6.03432">
        <ele>2390</ele>
        <time>2020-02-20T09:23:16.000Z</time>
      </trkpt>
      <trkpt lat="45.23975" lon="6.03425">
        <ele>2394</ele>
        <time>2020-02-20T09:23:33.000Z</time>
      </trkpt>
      <trkpt lat="45.23977" lon="6.03418">
        <ele>2397</ele>
        <time>2020-02-20T09:23:46.000Z</time>
      </trkpt>
      <trkpt lat="45.23979" lon="6.03411">
        <ele>2401</ele>
        <time>2020-02-20T09:23:59.920Z</time>
      </trkpt>
      <trkpt lat="45.23983" lon="6.03407">
        <ele>2403</ele>
        <time>2020-02-20T09:24:11.000Z</time>
      </trkpt>
      <trkpt lat="45.23987" lon="6.03401">
        <ele>2406</ele>
        <time>2020-02-20T09:24:33.000Z</time>
      </trkpt>
      <trkpt lat="45.2399" lon="6.03395">
        <ele>2409</ele>
        <time>2020-02-20T09:24:59.000Z</time>
      </trkpt>
      <trkpt lat="45.23995" lon="6.03394">
        <ele>2405</ele>
        <time>2020-02-20T09:25:44.000Z</time>
      </trkpt>
      <trkpt lat="45.23995" lon="6.03403">
        <ele>2406</ele>
        <time>2020-02-20T09:26:03.000Z</time>
      </trkpt>
      <trkpt lat="45.23994" lon="6.03411">
        <ele>2406</ele>
        <time>2020-02-20T09:26:19.240Z</time>
      </trkpt>
      <trkpt lat="45.23992" lon="6.03417">
        <ele>2412</ele>
        <time>2020-02-20T09:26:36.693Z</time>
      </trkpt>
      <trkpt lat="45.2399" lon="6.03422">
        <ele>2413</ele>
        <time>2020-02-20T09:26:59.177Z</time>
      </trkpt>
      <trkpt lat="45.23988" lon="6.0343">
        <ele>2413</ele>
        <time>2020-02-20T09:27:43.848Z</time>
      </trkpt>
      <trkpt lat="45.2399" lon="6.03438">
        <ele>2412</ele>
        <time>2020-02-20T09:27:59.000Z</time>
      </trkpt>
      <trkpt lat="45.23989" lon="6.03445">
        <ele>2411</ele>
        <time>2020-02-20T09:28:07.700Z</time>
      </trkpt>
      <trkpt lat="45.23987" lon="6.03452">
        <ele>2413</ele>
        <time>2020-02-20T09:28:20.000Z</time>
      </trkpt>
      <trkpt lat="45.23985" lon="6.0346">
        <ele>2412</ele>
        <time>2020-02-20T09:28:49.000Z</time>
      </trkpt>
      <trkpt lat="45.23986" lon="6.03466">
        <ele>2413</ele>
        <time>2020-02-20T09:29:13.000Z</time>
      </trkpt>
      <trkpt lat="45.23991" lon="6.03465">
        <ele>2415</ele>
        <time>2020-02-20T09:29:25.886Z</time>
      </trkpt>
      <trkpt lat="45.23996" lon="6.03461">
        <ele>2419</ele>
        <time>2020-02-20T09:29:40.000Z</time>
      </trkpt>
      <trkpt lat="45.24001" lon="6.03456">
        <ele>2424</ele>
        <time>2020-02-20T09:29:54.000Z</time>
      </trkpt>
      <trkpt lat="45.24006" lon="6.03451">
        <ele>2425</ele>
        <time>2020-02-20T09:30:12.000Z</time>
      </trkpt>
      <trkpt lat="45.24008" lon="6.03446">
        <ele>2425</ele>
        <time>2020-02-20T09:30:39.000Z</time>
      </trkpt>
      <trkpt lat="45.24013" lon="6.03444">
        <ele>2425</ele>
        <time>2020-02-20T09:30:59.077Z</time>
      </trkpt>
      <trkpt lat="45.24008" lon="6.03449">
        <ele>2427</ele>
        <time>2020-02-20T09:31:15.366Z</time>
      </trkpt>
      <trkpt lat="45.24012" lon="6.03445">
        <ele>2433</ele>
        <time>2020-02-20T09:32:09.000Z</time>
      </trkpt>
      <trkpt lat="45.24008" lon="6.03443">
        <ele>2439</ele>
        <time>2020-02-20T09:33:46.000Z</time>
      </trkpt>
      <trkpt lat="45.24012" lon="6.0344">
        <ele>2441</ele>
        <time>2020-02-20T09:35:56.000Z</time>
      </trkpt>
      <trkpt lat="45.24016" lon="6.03436">
        <ele>2440</ele>
        <time>2020-02-20T09:36:11.943Z</time>
      </trkpt>
      <trkpt lat="45.24021" lon="6.03437">
        <ele>2446</ele>
        <time>2020-02-20T09:37:22.000Z</time>
      </trkpt>
      <trkpt lat="45.24025" lon="6.0344">
        <ele>2446</ele>
        <time>2020-02-20T09:37:53.000Z</time>
      </trkpt>
      <trkpt lat="45.2403" lon="6.03437">
        <ele>2450</ele>
        <time>2020-02-20T09:38:07.000Z</time>
      </trkpt>
      <trkpt lat="45.24035" lon="6.03435">
        <ele>2451</ele>
        <time>2020-02-20T09:38:24.000Z</time>
      </trkpt>
      <trkpt lat="45.24038" lon="6.0343">
        <ele>2455</ele>
        <time>2020-02-20T09:38:40.550Z</time>
      </trkpt>
      <trkpt lat="45.24043" lon="6.03433">
        <ele>2461</ele>
        <time>2020-02-20T09:39:16.000Z</time>
      </trkpt>
      <trkpt lat="45.24045" lon="6.0344">
        <ele>2463</ele>
        <time>2020-02-20T09:39:36.000Z</time>
      </trkpt>
      <trkpt lat="45.24051" lon="6.03442">
        <ele>2468</ele>
        <time>2020-02-20T09:39:54.000Z</time>
      </trkpt>
      <trkpt lat="45.24056" lon="6.03441">
        <ele>2473</ele>
        <time>2020-02-20T09:40:15.000Z</time>
      </trkpt>
      <trkpt lat="45.2406" lon="6.03442">
        <ele>2474</ele>
        <time>2020-02-20T09:40:28.074Z</time>
      </trkpt>
      <trkpt lat="45.24064" lon="6.03446">
        <ele>2478</ele>
        <time>2020-02-20T09:41:04.718Z</time>
      </trkpt>
      <trkpt lat="45.24068" lon="6.0345">
        <ele>2482</ele>
        <time>2020-02-20T09:41:32.618Z</time>
      </trkpt>
      <trkpt lat="45.24072" lon="6.03454">
        <ele>2485</ele>
        <time>2020-02-20T09:41:51.000Z</time>
      </trkpt>
      <trkpt lat="45.24077" lon="6.03456">
        <ele>2490</ele>
        <time>2020-02-20T09:42:35.000Z</time>
      </trkpt>
      <trkpt lat="45.2408" lon="6.03461">
        <ele>2491</ele>
        <time>2020-02-20T09:42:49.000Z</time>
      </trkpt>
      <trkpt lat="45.24085" lon="6.03461">
        <ele>2495</ele>
        <time>2020-02-20T09:43:21.000Z</time>
      </trkpt>
      <trkpt lat="45.2409" lon="6.03465">
        <ele>2506</ele>
        <time>2020-02-20T09:43:49.027Z</time>
      </trkpt>
      <trkpt lat="45.24095" lon="6.03465">
        <ele>2509</ele>
        <time>2020-02-20T09:44:02.000Z</time>
      </trkpt>
      <trkpt lat="45.241" lon="6.03461">
        <ele>2512</ele>
        <time>2020-02-20T09:44:30.000Z</time>
      </trkpt>
      <trkpt lat="45.24104" lon="6.0346">
        <ele>2514</ele>
        <time>2020-02-20T09:44:55.000Z</time>
      </trkpt>
      <trkpt lat="45.24105" lon="6.03453">
        <ele>2516</ele>
        <time>2020-02-20T09:45:26.000Z</time>
      </trkpt>
      <trkpt lat="45.24106" lon="6.03446">
        <ele>2515</ele>
        <time>2020-02-20T09:45:43.000Z</time>
      </trkpt>
      <trkpt lat="45.24103" lon="6.0345">
        <ele>2516</ele>
        <time>2020-02-20T09:46:40.000Z</time>
      </trkpt>
      <trkpt lat="45.24103" lon="6.03457">
        <ele>2515</ele>
        <time>2020-02-20T09:50:32.274Z</time>
      </trkpt>
      <trkpt lat="45.24097" lon="6.03463">
        <ele>2514</ele>
        <time>2020-02-20T09:50:40.000Z</time>
      </trkpt>
      <trkpt lat="45.24092" lon="6.03463">
        <ele>2510</ele>
        <time>2020-02-20T09:50:51.000Z</time>
      </trkpt>
      <trkpt lat="45.24096" lon="6.03467">
        <ele>2510</ele>
        <time>2020-02-20T09:58:04.000Z</time>
      </trkpt>
      <trkpt lat="45.24092" lon="6.03467">
        <ele>2511</ele>
        <time>2020-02-20T09:58:18.000Z</time>
      </trkpt>
      <trkpt lat="45.24086" lon="6.03464">
        <ele>2510</ele>
        <time>2020-02-20T10:03:28.000Z</time>
      </trkpt>
      <trkpt lat="45.2408" lon="6.03461">
        <ele>2509</ele>
        <time>2020-02-20T10:03:33.701Z</time>
      </trkpt>
      <trkpt lat="45.24079" lon="6.03454">
        <ele>2507</ele>
        <time>2020-02-20T10:03:38.000Z</time>
      </trkpt>
      <trkpt lat="45.24071" lon="6.03452">
        <ele>2502</ele>
        <time>2020-02-20T10:03:40.634Z</time>
      </trkpt>
      <trkpt lat="45.24064" lon="6.03445">
        <ele>2496</ele>
        <time>2020-02-20T10:03:44.217Z</time>
      </trkpt>
      <trkpt lat="45.24057" lon="6.03439">
        <ele>2491</ele>
        <time>2020-02-20T10:03:49.000Z</time>
      </trkpt>
      <trkpt lat="45.24051" lon="6.03438">
        <ele>2487</ele>
        <time>2020-02-20T10:03:51.737Z</time>
      </trkpt>
      <trkpt lat="45.24048" lon="6.03454">
        <ele>2483</ele>
        <time>2020-02-20T10:03:55.099Z</time>
      </trkpt>
      <trkpt lat="45.24045" lon="6.0346">
        <ele>2480</ele>
        <time>2020-02-20T10:03:59.000Z</time>
      </trkpt>
      <trkpt lat="45.24039" lon="6.03448">
        <ele>2476</ele>
        <time>2020-02-20T10:04:13.000Z</time>
      </trkpt>
      <trkpt lat="45.24032" lon="6.03456">
        <ele>2473</ele>
        <time>2020-02-20T10:04:17.000Z</time>
      </trkpt>
      <trkpt lat="45.24029" lon="6.03463">
        <ele>2470</ele>
        <time>2020-02-20T10:04:20.000Z</time>
      </trkpt>
      <trkpt lat="45.24025" lon="6.03469">
        <ele>2469</ele>
        <time>2020-02-20T10:04:39.000Z</time>
      </trkpt>
      <trkpt lat="45.2402" lon="6.03466">
        <ele>2465</ele>
        <time>2020-02-20T10:04:46.000Z</time>
      </trkpt>
      <trkpt lat="45.24015" lon="6.03458">
        <ele>2464</ele>
        <time>2020-02-20T10:04:49.000Z</time>
      </trkpt>
      <trkpt lat="45.2401" lon="6.0346">
        <ele>2461</ele>
        <time>2020-02-20T10:04:57.000Z</time>
      </trkpt>
      <trkpt lat="45.23998" lon="6.03463">
        <ele>2458</ele>
        <time>2020-02-20T10:04:59.506Z</time>
      </trkpt>
      <trkpt lat="45.23989" lon="6.03464">
        <ele>2455</ele>
        <time>2020-02-20T10:05:04.000Z</time>
      </trkpt>
      <trkpt lat="45.23983" lon="6.03465">
        <ele>2452</ele>
        <time>2020-02-20T10:05:11.000Z</time>
      </trkpt>
      <trkpt lat="45.2397" lon="6.03437">
        <ele>2444</ele>
        <time>2020-02-20T10:05:22.000Z</time>
      </trkpt>
      <trkpt lat="45.2396" lon="6.03429">
        <ele>2438</ele>
        <time>2020-02-20T10:05:24.796Z</time>
      </trkpt>
      <trkpt lat="45.23949" lon="6.03425">
        <ele>2430</ele>
        <time>2020-02-20T10:05:29.000Z</time>
      </trkpt>
      <trkpt lat="45.23941" lon="6.03432">
        <ele>2425</ele>
        <time>2020-02-20T10:05:32.000Z</time>
      </trkpt>
      <trkpt lat="45.23934" lon="6.03421">
        <ele>2418</ele>
        <time>2020-02-20T10:05:35.053Z</time>
      </trkpt>
      <trkpt lat="45.23917" lon="6.03405">
        <ele>2396</ele>
        <time>2020-02-20T10:05:57.000Z</time>
      </trkpt>
      <trkpt lat="45.23907" lon="6.03417">
        <ele>2392</ele>
        <time>2020-02-20T10:05:59.676Z</time>
      </trkpt>
      <trkpt lat="45.23897" lon="6.03425">
        <ele>2388</ele>
        <time>2020-02-20T10:06:03.038Z</time>
      </trkpt>
      <trkpt lat="45.23892" lon="6.0343">
        <ele>2385</ele>
        <time>2020-02-20T10:06:06.131Z</time>
      </trkpt>
      <trkpt lat="45.23884" lon="6.03419">
        <ele>2379</ele>
        <time>2020-02-20T10:06:29.000Z</time>
      </trkpt>
      <trkpt lat="45.2387" lon="6.03417">
        <ele>2374</ele>
        <time>2020-02-20T10:06:32.000Z</time>
      </trkpt>
      <trkpt lat="45.23856" lon="6.0342">
        <ele>2372</ele>
        <time>2020-02-20T10:06:35.000Z</time>
      </trkpt>
      <trkpt lat="45.23852" lon="6.0341">
        <ele>2367</ele>
        <time>2020-02-20T10:06:39.000Z</time>
      </trkpt>
      <trkpt lat="45.23849" lon="6.03384">
        <ele>2365</ele>
        <time>2020-02-20T10:06:42.000Z</time>
      </trkpt>
      <trkpt lat="45.2384" lon="6.03367">
        <ele>2361</ele>
        <time>2020-02-20T10:06:45.000Z</time>
      </trkpt>
      <trkpt lat="45.23821" lon="6.03355">
        <ele>2353</ele>
        <time>2020-02-20T10:06:49.000Z</time>
      </trkpt>
      <trkpt lat="45.23799" lon="6.03338">
        <ele>2348</ele>
        <time>2020-02-20T10:06:53.000Z</time>
      </trkpt>
      <trkpt lat="45.23782" lon="6.03335">
        <ele>2340</ele>
        <time>2020-02-20T10:06:56.000Z</time>
      </trkpt>
      <trkpt lat="45.23768" lon="6.03334">
        <ele>2334</ele>
        <time>2020-02-20T10:06:59.000Z</time>
      </trkpt>
      <trkpt lat="45.23755" lon="6.03335">
        <ele>2328</ele>
        <time>2020-02-20T10:07:03.000Z</time>
      </trkpt>
      <trkpt lat="45.23749" lon="6.03335">
        <ele>2326</ele>
        <time>2020-02-20T10:07:06.000Z</time>
      </trkpt>
      <trkpt lat="45.23745" lon="6.03336">
        <ele>2324</ele>
        <time>2020-02-20T10:07:09.000Z</time>
      </trkpt>
      <trkpt lat="45.23741" lon="6.03341">
        <ele>2319</ele>
        <time>2020-02-20T10:07:19.000Z</time>
      </trkpt>
      <trkpt lat="45.23729" lon="6.03335">
        <ele>2315</ele>
        <time>2020-02-20T10:07:31.000Z</time>
      </trkpt>
      <trkpt lat="45.23709" lon="6.03334">
        <ele>2312</ele>
        <time>2020-02-20T10:07:34.017Z</time>
      </trkpt>
      <trkpt lat="45.23691" lon="6.03327">
        <ele>2311</ele>
        <time>2020-02-20T10:07:38.000Z</time>
      </trkpt>
      <trkpt lat="45.23673" lon="6.0332">
        <ele>2307</ele>
        <time>2020-02-20T10:07:41.000Z</time>
      </trkpt>
      <trkpt lat="45.23652" lon="6.0331">
        <ele>2304</ele>
        <time>2020-02-20T10:07:45.000Z</time>
      </trkpt>
      <trkpt lat="45.23643" lon="6.03311">
        <ele>2301</ele>
        <time>2020-02-20T10:07:48.000Z</time>
      </trkpt>
      <trkpt lat="45.23625" lon="6.03303">
        <ele>2298</ele>
        <time>2020-02-20T10:07:51.157Z</time>
      </trkpt>
      <trkpt lat="45.23612" lon="6.03303">
        <ele>2295</ele>
        <time>2020-02-20T10:07:55.000Z</time>
      </trkpt>
      <trkpt lat="45.23607" lon="6.03306">
        <ele>2293</ele>
        <time>2020-02-20T10:07:59.000Z</time>
      </trkpt>
      <trkpt lat="45.23598" lon="6.03301">
        <ele>2292</ele>
        <time>2020-02-20T10:08:49.000Z</time>
      </trkpt>
      <trkpt lat="45.23589" lon="6.03305">
        <ele>2291</ele>
        <time>2020-02-20T10:08:52.180Z</time>
      </trkpt>
      <trkpt lat="45.2358" lon="6.03305">
        <ele>2287</ele>
        <time>2020-02-20T10:08:57.000Z</time>
      </trkpt>
      <trkpt lat="45.23551" lon="6.03298">
        <ele>2284</ele>
        <time>2020-02-20T10:09:01.000Z</time>
      </trkpt>
      <trkpt lat="45.23528" lon="6.03292">
        <ele>2280</ele>
        <time>2020-02-20T10:09:04.000Z</time>
      </trkpt>
      <trkpt lat="45.23498" lon="6.03274">
        <ele>2274</ele>
        <time>2020-02-20T10:09:08.000Z</time>
      </trkpt>
      <trkpt lat="45.23479" lon="6.03262">
        <ele>2271</ele>
        <time>2020-02-20T10:09:11.000Z</time>
      </trkpt>
      <trkpt lat="45.23466" lon="6.03253">
        <ele>2268</ele>
        <time>2020-02-20T10:09:14.000Z</time>
      </trkpt>
      <trkpt lat="45.23447" lon="6.03241">
        <ele>2265</ele>
        <time>2020-02-20T10:09:18.000Z</time>
      </trkpt>
      <trkpt lat="45.23435" lon="6.03239">
        <ele>2261</ele>
        <time>2020-02-20T10:09:22.000Z</time>
      </trkpt>
      <trkpt lat="45.23431" lon="6.03242">
        <ele>2257</ele>
        <time>2020-02-20T10:09:29.000Z</time>
      </trkpt>
      <trkpt lat="45.23417" lon="6.0324">
        <ele>2254</ele>
        <time>2020-02-20T10:09:46.955Z</time>
      </trkpt>
      <trkpt lat="45.23397" lon="6.03237">
        <ele>2251</ele>
        <time>2020-02-20T10:09:51.000Z</time>
      </trkpt>
      <trkpt lat="45.23379" lon="6.03231">
        <ele>2250</ele>
        <time>2020-02-20T10:09:54.000Z</time>
      </trkpt>
      <trkpt lat="45.23359" lon="6.03225">
        <ele>2246</ele>
        <time>2020-02-20T10:09:57.000Z</time>
      </trkpt>
      <trkpt lat="45.23342" lon="6.03223">
        <ele>2242</ele>
        <time>2020-02-20T10:10:01.000Z</time>
      </trkpt>
      <trkpt lat="45.23332" lon="6.03211">
        <ele>2238</ele>
        <time>2020-02-20T10:10:04.000Z</time>
      </trkpt>
      <trkpt lat="45.23319" lon="6.03204">
        <ele>2233</ele>
        <time>2020-02-20T10:10:08.000Z</time>
      </trkpt>
      <trkpt lat="45.23303" lon="6.03176">
        <ele>2228</ele>
        <time>2020-02-20T10:10:11.000Z</time>
      </trkpt>
      <trkpt lat="45.23281" lon="6.03159">
        <ele>2221</ele>
        <time>2020-02-20T10:10:15.000Z</time>
      </trkpt>
      <trkpt lat="45.23265" lon="6.03149">
        <ele>2216</ele>
        <time>2020-02-20T10:10:18.000Z</time>
      </trkpt>
      <trkpt lat="45.2325" lon="6.03141">
        <ele>2210</ele>
        <time>2020-02-20T10:10:22.000Z</time>
      </trkpt>
      <trkpt lat="45.2324" lon="6.03135">
        <ele>2206</ele>
        <time>2020-02-20T10:10:25.000Z</time>
      </trkpt>
      <trkpt lat="45.23233" lon="6.0313">
        <ele>2202</ele>
        <time>2020-02-20T10:10:27.597Z</time>
      </trkpt>
      <trkpt lat="45.23228" lon="6.03131">
        <ele>2198</ele>
        <time>2020-02-20T10:10:41.000Z</time>
      </trkpt>
      <trkpt lat="45.23225" lon="6.03122">
        <ele>2193</ele>
        <time>2020-02-20T10:10:56.031Z</time>
      </trkpt>
      <trkpt lat="45.23207" lon="6.03105">
        <ele>2188</ele>
        <time>2020-02-20T10:11:00.000Z</time>
      </trkpt>
      <trkpt lat="45.23179" lon="6.03093">
        <ele>2185</ele>
        <time>2020-02-20T10:11:03.000Z</time>
      </trkpt>
      <trkpt lat="45.23146" lon="6.03076">
        <ele>2181</ele>
        <time>2020-02-20T10:11:07.000Z</time>
      </trkpt>
      <trkpt lat="45.23127" lon="6.03061">
        <ele>2179</ele>
        <time>2020-02-20T10:11:10.000Z</time>
      </trkpt>
      <trkpt lat="45.23115" lon="6.03049">
        <ele>2176</ele>
        <time>2020-02-20T10:11:13.000Z</time>
      </trkpt>
      <trkpt lat="45.231" lon="6.03041">
        <ele>2173</ele>
        <time>2020-02-20T10:11:17.000Z</time>
      </trkpt>
      <trkpt lat="45.23105" lon="6.03021">
        <ele>2161</ele>
        <time>2020-02-20T10:11:40.000Z</time>
      </trkpt>
      <trkpt lat="45.23095" lon="6.02977">
        <ele>2156</ele>
        <time>2020-02-20T10:11:44.000Z</time>
      </trkpt>
      <trkpt lat="45.2308" lon="6.02978">
        <ele>2151</ele>
        <time>2020-02-20T10:11:48.000Z</time>
      </trkpt>
      <trkpt lat="45.23071" lon="6.02983">
        <ele>2147</ele>
        <time>2020-02-20T10:11:51.000Z</time>
      </trkpt>
      <trkpt lat="45.23066" lon="6.02982">
        <ele>2143</ele>
        <time>2020-02-20T10:12:22.000Z</time>
      </trkpt>
      <trkpt lat="45.23052" lon="6.02976">
        <ele>2140</ele>
        <time>2020-02-20T10:12:25.000Z</time>
      </trkpt>
      <trkpt lat="45.23041" lon="6.02985">
        <ele>2135</ele>
        <time>2020-02-20T10:12:29.000Z</time>
      </trkpt>
      <trkpt lat="45.2304" lon="6.02992">
        <ele>2130</ele>
        <time>2020-02-20T10:12:50.000Z</time>
      </trkpt>
      <trkpt lat="45.23029" lon="6.0299">
        <ele>2126</ele>
        <time>2020-02-20T10:12:55.819Z</time>
      </trkpt>
      <trkpt lat="45.23012" lon="6.02993">
        <ele>2121</ele>
        <time>2020-02-20T10:13:00.000Z</time>
      </trkpt>
      <trkpt lat="45.22995" lon="6.03">
        <ele>2118</ele>
        <time>2020-02-20T10:13:03.000Z</time>
      </trkpt>
      <trkpt lat="45.22981" lon="6.03012">
        <ele>2116</ele>
        <time>2020-02-20T10:13:06.028Z</time>
      </trkpt>
      <trkpt lat="45.22951" lon="6.02992">
        <ele>2110</ele>
        <time>2020-02-20T10:13:10.000Z</time>
      </trkpt>
      <trkpt lat="45.22912" lon="6.02983">
        <ele>2105</ele>
        <time>2020-02-20T10:13:14.000Z</time>
      </trkpt>
      <trkpt lat="45.22896" lon="6.0298">
        <ele>2091</ele>
        <time>2020-02-20T10:13:21.000Z</time>
      </trkpt>
      <trkpt lat="45.2288" lon="6.02973">
        <ele>2083</ele>
        <time>2020-02-20T10:13:25.000Z</time>
      </trkpt>
      <trkpt lat="45.2287" lon="6.02976">
        <ele>2080</ele>
        <time>2020-02-20T10:13:29.000Z</time>
      </trkpt>
      <trkpt lat="45.22865" lon="6.02981">
        <ele>2073</ele>
        <time>2020-02-20T10:13:54.000Z</time>
      </trkpt>
      <trkpt lat="45.22866" lon="6.02964">
        <ele>2069</ele>
        <time>2020-02-20T10:14:30.000Z</time>
      </trkpt>
      <trkpt lat="45.22867" lon="6.02947">
        <ele>2067</ele>
        <time>2020-02-20T10:14:32.822Z</time>
      </trkpt>
      <trkpt lat="45.22876" lon="6.0294">
        <ele>2065</ele>
        <time>2020-02-20T10:14:37.000Z</time>
      </trkpt>
      <trkpt lat="45.22868" lon="6.02931">
        <ele>2060</ele>
        <time>2020-02-20T10:15:39.000Z</time>
      </trkpt>
      <trkpt lat="45.2286" lon="6.02926">
        <ele>2059</ele>
        <time>2020-02-20T10:15:42.000Z</time>
      </trkpt>
      <trkpt lat="45.22856" lon="6.0293">
        <ele>2055</ele>
        <time>2020-02-20T10:15:49.000Z</time>
      </trkpt>
      <trkpt lat="45.22857" lon="6.02911">
        <ele>2054</ele>
        <time>2020-02-20T10:15:51.953Z</time>
      </trkpt>
      <trkpt lat="45.22857" lon="6.02899">
        <ele>2050</ele>
        <time>2020-02-20T10:15:56.000Z</time>
      </trkpt>
      <trkpt lat="45.22854" lon="6.02879">
        <ele>2047</ele>
        <time>2020-02-20T10:15:59.000Z</time>
      </trkpt>
      <trkpt lat="45.22855" lon="6.02871">
        <ele>2046</ele>
        <time>2020-02-20T10:16:03.000Z</time>
      </trkpt>
      <trkpt lat="45.22857" lon="6.02864">
        <ele>2043</ele>
        <time>2020-02-20T10:16:11.000Z</time>
      </trkpt>
      <trkpt lat="45.22861" lon="6.0284">
        <ele>2040</ele>
        <time>2020-02-20T10:16:14.000Z</time>
      </trkpt>
      <trkpt lat="45.22865" lon="6.02795">
        <ele>2034</ele>
        <time>2020-02-20T10:16:18.000Z</time>
      </trkpt>
      <trkpt lat="45.22867" lon="6.02778">
        <ele>2032</ele>
        <time>2020-02-20T10:16:21.000Z</time>
      </trkpt>
      <trkpt lat="45.22868" lon="6.02767">
        <ele>2032</ele>
        <time>2020-02-20T10:16:24.000Z</time>
      </trkpt>
      <trkpt lat="45.2287" lon="6.02755">
        <ele>2031</ele>
        <time>2020-02-20T10:16:26.842Z</time>
      </trkpt>
      <trkpt lat="45.22872" lon="6.02749">
        <ele>2029</ele>
        <time>2020-02-20T10:16:32.000Z</time>
      </trkpt>
      <trkpt lat="45.22873" lon="6.02739">
        <ele>2024</ele>
        <time>2020-02-20T10:16:48.854Z</time>
      </trkpt>
      <trkpt lat="45.22874" lon="6.02731">
        <ele>2022</ele>
        <time>2020-02-20T10:16:54.000Z</time>
      </trkpt>
      <trkpt lat="45.22867" lon="6.027">
        <ele>2018</ele>
        <time>2020-02-20T10:16:58.000Z</time>
      </trkpt>
      <trkpt lat="45.22869" lon="6.0267">
        <ele>2013</ele>
        <time>2020-02-20T10:17:01.000Z</time>
      </trkpt>
      <trkpt lat="45.22875" lon="6.02668">
        <ele>2009</ele>
        <time>2020-02-20T10:17:04.000Z</time>
      </trkpt>
      <trkpt lat="45.22883" lon="6.02658">
        <ele>2005</ele>
        <time>2020-02-20T10:17:06.383Z</time>
      </trkpt>
      <trkpt lat="45.22868" lon="6.02618">
        <ele>2000</ele>
        <time>2020-02-20T10:17:12.000Z</time>
      </trkpt>
      <trkpt lat="45.22856" lon="6.02599">
        <ele>1994</ele>
        <time>2020-02-20T10:17:16.000Z</time>
      </trkpt>
      <trkpt lat="45.2285" lon="6.0259">
        <ele>1990</ele>
        <time>2020-02-20T10:17:17.375Z</time>
      </trkpt>
      <trkpt lat="45.22833" lon="6.02565">
        <ele>1985</ele>
        <time>2020-02-20T10:17:23.000Z</time>
      </trkpt>
      <trkpt lat="45.22814" lon="6.02542">
        <ele>1979</ele>
        <time>2020-02-20T10:17:26.000Z</time>
      </trkpt>
      <trkpt lat="45.22789" lon="6.02519">
        <ele>1976</ele>
        <time>2020-02-20T10:17:29.000Z</time>
      </trkpt>
      <trkpt lat="45.22776" lon="6.02507">
        <ele>1973</ele>
        <time>2020-02-20T10:17:32.000Z</time>
      </trkpt>
      <trkpt lat="45.2276" lon="6.02497">
        <ele>1961</ele>
        <time>2020-02-20T10:18:05.000Z</time>
      </trkpt>
      <trkpt lat="45.22755" lon="6.02487">
        <ele>1957</ele>
        <time>2020-02-20T10:18:08.000Z</time>
      </trkpt>
      <trkpt lat="45.22729" lon="6.02467">
        <ele>1953</ele>
        <time>2020-02-20T10:18:15.000Z</time>
      </trkpt>
      <trkpt lat="45.22704" lon="6.02458">
        <ele>1947</ele>
        <time>2020-02-20T10:18:19.000Z</time>
      </trkpt>
      <trkpt lat="45.22697" lon="6.02448">
        <ele>1943</ele>
        <time>2020-02-20T10:18:22.000Z</time>
      </trkpt>
      <trkpt lat="45.22681" lon="6.02445">
        <ele>1938</ele>
        <time>2020-02-20T10:18:25.000Z</time>
      </trkpt>
      <trkpt lat="45.22665" lon="6.02437">
        <ele>1935</ele>
        <time>2020-02-20T10:18:28.000Z</time>
      </trkpt>
      <trkpt lat="45.22656" lon="6.02427">
        <ele>1934</ele>
        <time>2020-02-20T10:18:32.000Z</time>
      </trkpt>
      <trkpt lat="45.22651" lon="6.02421">
        <ele>1931</ele>
        <time>2020-02-20T10:18:54.000Z</time>
      </trkpt>
      <trkpt lat="45.22631" lon="6.02393">
        <ele>1929</ele>
        <time>2020-02-20T10:18:58.000Z</time>
      </trkpt>
      <trkpt lat="45.22616" lon="6.0237">
        <ele>1927</ele>
        <time>2020-02-20T10:19:02.000Z</time>
      </trkpt>
      <trkpt lat="45.22603" lon="6.02352">
        <ele>1925</ele>
        <time>2020-02-20T10:19:06.000Z</time>
      </trkpt>
      <trkpt lat="45.22595" lon="6.02335">
        <ele>1923</ele>
        <time>2020-02-20T10:19:09.000Z</time>
      </trkpt>
      <trkpt lat="45.22581" lon="6.02312">
        <ele>1921</ele>
        <time>2020-02-20T10:19:13.000Z</time>
      </trkpt>
      <trkpt lat="45.22571" lon="6.02295">
        <ele>1919</ele>
        <time>2020-02-20T10:19:17.036Z</time>
      </trkpt>
      <trkpt lat="45.22567" lon="6.02302">
        <ele>1915</ele>
        <time>2020-02-20T10:19:30.000Z</time>
      </trkpt>
      <trkpt lat="45.22546" lon="6.02324">
        <ele>1913</ele>
        <time>2020-02-20T10:19:34.000Z</time>
      </trkpt>
      <trkpt lat="45.22534" lon="6.02364">
        <ele>1906</ele>
        <time>2020-02-20T10:19:38.000Z</time>
      </trkpt>
      <trkpt lat="45.22537" lon="6.02393">
        <ele>1903</ele>
        <time>2020-02-20T10:19:41.181Z</time>
      </trkpt>
      <trkpt lat="45.22521" lon="6.02382">
        <ele>1893</ele>
        <time>2020-02-20T10:19:48.000Z</time>
      </trkpt>
      <trkpt lat="45.22505" lon="6.02354">
        <ele>1891</ele>
        <time>2020-02-20T10:19:52.000Z</time>
      </trkpt>
      <trkpt lat="45.22497" lon="6.0234">
        <ele>1886</ele>
        <time>2020-02-20T10:19:56.000Z</time>
      </trkpt>
      <trkpt lat="45.22493" lon="6.02325">
        <ele>1883</ele>
        <time>2020-02-20T10:19:59.000Z</time>
      </trkpt>
      <trkpt lat="45.2249" lon="6.02318">
        <ele>1881</ele>
        <time>2020-02-20T10:20:02.069Z</time>
      </trkpt>
      <trkpt lat="45.22485" lon="6.02337">
        <ele>1876</ele>
        <time>2020-02-20T10:20:13.000Z</time>
      </trkpt>
      <trkpt lat="45.22483" lon="6.02343">
        <ele>1875</ele>
        <time>2020-02-20T10:20:16.065Z</time>
      </trkpt>
      <trkpt lat="45.22479" lon="6.02352">
        <ele>1874</ele>
        <time>2020-02-20T10:20:19.446Z</time>
      </trkpt>
      <trkpt lat="45.22471" lon="6.02347">
        <ele>1870</ele>
        <time>2020-02-20T10:20:26.000Z</time>
      </trkpt>
      <trkpt lat="45.22466" lon="6.02342">
        <ele>1868</ele>
        <time>2020-02-20T10:20:38.289Z</time>
      </trkpt>
      <trkpt lat="45.22462" lon="6.0235">
        <ele>1866</ele>
        <time>2020-02-20T10:20:41.466Z</time>
      </trkpt>
      <trkpt lat="45.22461" lon="6.02357">
        <ele>1863</ele>
        <time>2020-02-20T10:21:17.000Z</time>
      </trkpt>
      <trkpt lat="45.22456" lon="6.02367">
        <ele>1863</ele>
        <time>2020-02-20T10:36:56.000Z</time>
      </trkpt>
      <trkpt lat="45.2245" lon="6.02387">
        <ele>1860</ele>
        <time>2020-02-20T10:37:00.000Z</time>
      </trkpt>
      <trkpt lat="45.22446" lon="6.024">
        <ele>1858</ele>
        <time>2020-02-20T10:37:03.000Z</time>
      </trkpt>
      <trkpt lat="45.22438" lon="6.024">
        <ele>1855</ele>
        <time>2020-02-20T10:37:07.000Z</time>
      </trkpt>
      <trkpt lat="45.22425" lon="6.02386">
        <ele>1853</ele>
        <time>2020-02-20T10:37:10.000Z</time>
      </trkpt>
      <trkpt lat="45.22413" lon="6.02374">
        <ele>1848</ele>
        <time>2020-02-20T10:37:13.000Z</time>
      </trkpt>
      <trkpt lat="45.22406" lon="6.02372">
        <ele>1849</ele>
        <time>2020-02-20T10:37:16.073Z</time>
      </trkpt>
      <trkpt lat="45.224" lon="6.0236">
        <ele>1843</ele>
        <time>2020-02-20T10:37:23.000Z</time>
      </trkpt>
      <trkpt lat="45.22397" lon="6.0237">
        <ele>1841</ele>
        <time>2020-02-20T10:37:26.000Z</time>
      </trkpt>
      <trkpt lat="45.22392" lon="6.02367">
        <ele>1840</ele>
        <time>2020-02-20T10:37:29.264Z</time>
      </trkpt>
      <trkpt lat="45.22387" lon="6.02355">
        <ele>1838</ele>
        <time>2020-02-20T10:37:32.290Z</time>
      </trkpt>
      <trkpt lat="45.22375" lon="6.02333">
        <ele>1833</ele>
        <time>2020-02-20T10:37:36.000Z</time>
      </trkpt>
      <trkpt lat="45.22361" lon="6.02322">
        <ele>1828</ele>
        <time>2020-02-20T10:37:39.000Z</time>
      </trkpt>
      <trkpt lat="45.2236" lon="6.02308">
        <ele>1829</ele>
        <time>2020-02-20T10:37:42.000Z</time>
      </trkpt>
      <trkpt lat="45.22348" lon="6.02291">
        <ele>1826</ele>
        <time>2020-02-20T10:37:53.000Z</time>
      </trkpt>
      <trkpt lat="45.2234" lon="6.02274">
        <ele>1824</ele>
        <time>2020-02-20T10:37:56.000Z</time>
      </trkpt>
      <trkpt lat="45.22333" lon="6.0226">
        <ele>1824</ele>
        <time>2020-02-20T10:38:00.000Z</time>
      </trkpt>
      <trkpt lat="45.22328" lon="6.02258">
        <ele>1821</ele>
        <time>2020-02-20T10:38:03.000Z</time>
      </trkpt>
      <trkpt lat="45.22321" lon="6.02255">
        <ele>1820</ele>
        <time>2020-02-20T10:38:22.000Z</time>
      </trkpt>
      <trkpt lat="45.22318" lon="6.02245">
        <ele>1819</ele>
        <time>2020-02-20T10:38:25.059Z</time>
      </trkpt>
      <trkpt lat="45.22303" lon="6.02224">
        <ele>1817</ele>
        <time>2020-02-20T10:38:29.000Z</time>
      </trkpt>
      <trkpt lat="45.22295" lon="6.02223">
        <ele>1815</ele>
        <time>2020-02-20T10:38:31.994Z</time>
      </trkpt>
      <trkpt lat="45.22285" lon="6.02224">
        <ele>1812</ele>
        <time>2020-02-20T10:38:35.037Z</time>
      </trkpt>
      <trkpt lat="45.2228" lon="6.02218">
        <ele>1811</ele>
        <time>2020-02-20T10:38:38.172Z</time>
      </trkpt>
      <trkpt lat="45.22276" lon="6.02214">
        <ele>1808</ele>
        <time>2020-02-20T10:38:42.000Z</time>
      </trkpt>
      <trkpt lat="45.22276" lon="6.02205">
        <ele>1807</ele>
        <time>2020-02-20T10:38:44.597Z</time>
      </trkpt>
      <trkpt lat="45.22275" lon="6.02189">
        <ele>1805</ele>
        <time>2020-02-20T10:39:00.000Z</time>
      </trkpt>
      <trkpt lat="45.2227" lon="6.02172">
        <ele>1801</ele>
        <time>2020-02-20T10:39:04.000Z</time>
      </trkpt>
      <trkpt lat="45.22274" lon="6.02138">
        <ele>1800</ele>
        <time>2020-02-20T10:39:08.000Z</time>
      </trkpt>
      <trkpt lat="45.22281" lon="6.0211">
        <ele>1795</ele>
        <time>2020-02-20T10:39:12.000Z</time>
      </trkpt>
      <trkpt lat="45.22274" lon="6.02093">
        <ele>1793</ele>
        <time>2020-02-20T10:39:15.000Z</time>
      </trkpt>
      <trkpt lat="45.22267" lon="6.02074">
        <ele>1791</ele>
        <time>2020-02-20T10:39:19.000Z</time>
      </trkpt>
      <trkpt lat="45.22267" lon="6.02046">
        <ele>1790</ele>
        <time>2020-02-20T10:39:23.000Z</time>
      </trkpt>
      <trkpt lat="45.22263" lon="6.02041">
        <ele>1787</ele>
        <time>2020-02-20T10:39:25.101Z</time>
      </trkpt>
      <trkpt lat="45.22257" lon="6.02056">
        <ele>1774</ele>
        <time>2020-02-20T10:39:44.000Z</time>
      </trkpt>
      <trkpt lat="45.22247" lon="6.02046">
        <ele>1775</ele>
        <time>2020-02-20T10:39:48.000Z</time>
      </trkpt>
      <trkpt lat="45.22244" lon="6.02028">
        <ele>1771</ele>
        <time>2020-02-20T10:39:50.190Z</time>
      </trkpt>
      <trkpt lat="45.22244" lon="6.0201">
        <ele>1768</ele>
        <time>2020-02-20T10:39:53.740Z</time>
      </trkpt>
      <trkpt lat="45.22246" lon="6.02016">
        <ele>1765</ele>
        <time>2020-02-20T10:40:55.000Z</time>
      </trkpt>
      <trkpt lat="45.22248" lon="6.01979">
        <ele>1760</ele>
        <time>2020-02-20T10:41:05.000Z</time>
      </trkpt>
      <trkpt lat="45.22249" lon="6.01955">
        <ele>1760</ele>
        <time>2020-02-20T10:41:09.000Z</time>
      </trkpt>
      <trkpt lat="45.22251" lon="6.01938">
        <ele>1759</ele>
        <time>2020-02-20T10:41:12.000Z</time>
      </trkpt>
      <trkpt lat="45.22252" lon="6.01914">
        <ele>1759</ele>
        <time>2020-02-20T10:41:16.000Z</time>
      </trkpt>
      <trkpt lat="45.22255" lon="6.01889">
        <ele>1757</ele>
        <time>2020-02-20T10:41:19.000Z</time>
      </trkpt>
      <trkpt lat="45.22249" lon="6.01874">
        <ele>1756</ele>
        <time>2020-02-20T10:41:22.000Z</time>
      </trkpt>
      <trkpt lat="45.22249" lon="6.01851">
        <ele>1755</ele>
        <time>2020-02-20T10:41:26.000Z</time>
      </trkpt>
      <trkpt lat="45.22253" lon="6.01835">
        <ele>1755</ele>
        <time>2020-02-20T10:41:28.520Z</time>
      </trkpt>
      <trkpt lat="45.22257" lon="6.01828">
        <ele>1754</ele>
        <time>2020-02-20T10:41:31.848Z</time>
      </trkpt>
      <trkpt lat="45.22266" lon="6.0181">
        <ele>1750</ele>
        <time>2020-02-20T10:41:41.000Z</time>
      </trkpt>
      <trkpt lat="45.22267" lon="6.0178">
        <ele>1749</ele>
        <time>2020-02-20T10:41:44.000Z</time>
      </trkpt>
      <trkpt lat="45.22257" lon="6.01762">
        <ele>1746</ele>
        <time>2020-02-20T10:41:47.000Z</time>
      </trkpt>
      <trkpt lat="45.22256" lon="6.01736">
        <ele>1744</ele>
        <time>2020-02-20T10:41:50.000Z</time>
      </trkpt>
      <trkpt lat="45.22259" lon="6.01719">
        <ele>1740</ele>
        <time>2020-02-20T10:41:52.253Z</time>
      </trkpt>
      <trkpt lat="45.2226" lon="6.01706">
        <ele>1738</ele>
        <time>2020-02-20T10:41:57.000Z</time>
      </trkpt>
      <trkpt lat="45.22262" lon="6.01694">
        <ele>1737</ele>
        <time>2020-02-20T10:42:01.000Z</time>
      </trkpt>
      <trkpt lat="45.22263" lon="6.01685">
        <ele>1735</ele>
        <time>2020-02-20T10:42:04.000Z</time>
      </trkpt>
      <trkpt lat="45.22264" lon="6.01671">
        <ele>1732</ele>
        <time>2020-02-20T10:42:09.842Z</time>
      </trkpt>
      <trkpt lat="45.22265" lon="6.01661">
        <ele>1731</ele>
        <time>2020-02-20T10:42:16.249Z</time>
      </trkpt>
      <trkpt lat="45.22266" lon="6.01651">
        <ele>1729</ele>
        <time>2020-02-20T10:42:24.000Z</time>
      </trkpt>
      <trkpt lat="45.22266" lon="6.01643">
        <ele>1728</ele>
        <time>2020-02-20T10:42:30.668Z</time>
      </trkpt>
      <trkpt lat="45.22266" lon="6.01634">
        <ele>1727</ele>
        <time>2020-02-20T10:42:37.354Z</time>
      </trkpt>
      <trkpt lat="45.22266" lon="6.01626">
        <ele>1726</ele>
        <time>2020-02-20T10:42:44.347Z</time>
      </trkpt>
      <trkpt lat="45.22264" lon="6.01615">
        <ele>1724</ele>
        <time>2020-02-20T10:42:51.570Z</time>
      </trkpt>
      <trkpt lat="45.22262" lon="6.01605">
        <ele>1723</ele>
        <time>2020-02-20T10:43:00.000Z</time>
      </trkpt>
      <trkpt lat="45.22261" lon="6.01596">
        <ele>1722</ele>
        <time>2020-02-20T10:43:07.000Z</time>
      </trkpt>
      <trkpt lat="45.2226" lon="6.01589">
        <ele>1720</ele>
        <time>2020-02-20T10:43:11.000Z</time>
      </trkpt>
      <trkpt lat="45.22257" lon="6.01567">
        <ele>1718</ele>
        <time>2020-02-20T10:43:14.000Z</time>
      </trkpt>
      <trkpt lat="45.22256" lon="6.01554">
        <ele>1719</ele>
        <time>2020-02-20T10:43:17.000Z</time>
      </trkpt>
      <trkpt lat="45.22256" lon="6.01546">
        <ele>1717</ele>
        <time>2020-02-20T10:43:18.910Z</time>
      </trkpt>
      <trkpt lat="45.22255" lon="6.01536">
        <ele>1716</ele>
        <time>2020-02-20T10:43:24.000Z</time>
      </trkpt>
      <trkpt lat="45.22253" lon="6.01524">
        <ele>1716</ele>
        <time>2020-02-20T10:43:28.000Z</time>
      </trkpt>
      <trkpt lat="45.22252" lon="6.01516">
        <ele>1714</ele>
        <time>2020-02-20T10:43:36.000Z</time>
      </trkpt>
      <trkpt lat="45.22251" lon="6.01509">
        <ele>1713</ele>
        <time>2020-02-20T10:43:39.000Z</time>
      </trkpt>
      <trkpt lat="45.2225" lon="6.015">
        <ele>1710</ele>
        <time>2020-02-20T10:43:44.000Z</time>
      </trkpt>
      <trkpt lat="45.22247" lon="6.01485">
        <ele>1707</ele>
        <time>2020-02-20T10:43:47.000Z</time>
      </trkpt>
      <trkpt lat="45.22243" lon="6.01473">
        <ele>1704</ele>
        <time>2020-02-20T10:43:50.000Z</time>
      </trkpt>
      <trkpt lat="45.22237" lon="6.01464">
        <ele>1701</ele>
        <time>2020-02-20T10:43:53.000Z</time>
      </trkpt>
      <trkpt lat="45.22234" lon="6.01453">
        <ele>1700</ele>
        <time>2020-02-20T10:43:56.000Z</time>
      </trkpt>
      <trkpt lat="45.22235" lon="6.01438">
        <ele>1698</ele>
        <time>2020-02-20T10:43:57.822Z</time>
      </trkpt>
      <trkpt lat="45.22242" lon="6.01418">
        <ele>1701</ele>
        <time>2020-02-20T10:44:03.000Z</time>
      </trkpt>
      <trkpt lat="45.22251" lon="6.01404">
        <ele>1700</ele>
        <time>2020-02-20T10:44:07.000Z</time>
      </trkpt>
      <trkpt lat="45.22266" lon="6.01392">
        <ele>1698</ele>
        <time>2020-02-20T10:44:11.000Z</time>
      </trkpt>
      <trkpt lat="45.22274" lon="6.01385">
        <ele>1700</ele>
        <time>2020-02-20T10:44:15.000Z</time>
      </trkpt>
      <trkpt lat="45.22274" lon="6.01371">
        <ele>1697</ele>
        <time>2020-02-20T10:44:21.000Z</time>
      </trkpt>
      <trkpt lat="45.22276" lon="6.01355">
        <ele>1696</ele>
        <time>2020-02-20T10:44:23.286Z</time>
      </trkpt>
      <trkpt lat="45.22279" lon="6.01338">
        <ele>1696</ele>
        <time>2020-02-20T10:44:28.000Z</time>
      </trkpt>
      <trkpt lat="45.22284" lon="6.01323">
        <ele>1695</ele>
        <time>2020-02-20T10:44:30.352Z</time>
      </trkpt>
      <trkpt lat="45.22282" lon="6.01316">
        <ele>1695</ele>
        <time>2020-02-20T10:44:35.000Z</time>
      </trkpt>
      <trkpt lat="45.22277" lon="6.0131">
        <ele>1695</ele>
        <time>2020-02-20T10:44:38.000Z</time>
      </trkpt>
      <trkpt lat="45.22273" lon="6.01305">
        <ele>1696</ele>
        <time>2020-02-20T10:44:45.000Z</time>
      </trkpt>
      <trkpt lat="45.22264" lon="6.01305">
        <ele>1696</ele>
        <time>2020-02-20T10:44:46.854Z</time>
      </trkpt>
      <trkpt lat="45.22254" lon="6.01311">
        <ele>1695</ele>
        <time>2020-02-20T10:44:52.000Z</time>
      </trkpt>
      <trkpt lat="45.22247" lon="6.01304">
        <ele>1693</ele>
        <time>2020-02-20T10:44:59.000Z</time>
      </trkpt>
      <trkpt lat="45.22237" lon="6.01294">
        <ele>1690</ele>
        <time>2020-02-20T10:45:03.000Z</time>
      </trkpt>
      <trkpt lat="45.22237" lon="6.01272">
        <ele>1687</ele>
        <time>2020-02-20T10:45:10.000Z</time>
      </trkpt>
      <trkpt lat="45.2224" lon="6.01255">
        <ele>1686</ele>
        <time>2020-02-20T10:45:11.614Z</time>
      </trkpt>
      <trkpt lat="45.22249" lon="6.01234">
        <ele>1683</ele>
        <time>2020-02-20T10:45:17.000Z</time>
      </trkpt>
      <trkpt lat="45.22252" lon="6.01227">
        <ele>1678</ele>
        <time>2020-02-20T10:45:23.000Z</time>
      </trkpt>
      <trkpt lat="45.22249" lon="6.01213">
        <ele>1676</ele>
        <time>2020-02-20T10:45:24.180Z</time>
      </trkpt>
      <trkpt lat="45.22247" lon="6.01185">
        <ele>1674</ele>
        <time>2020-02-20T10:45:29.000Z</time>
      </trkpt>
      <trkpt lat="45.22245" lon="6.01168">
        <ele>1671</ele>
        <time>2020-02-20T10:45:32.000Z</time>
      </trkpt>
      <trkpt lat="45.22243" lon="6.01159">
        <ele>1670</ele>
        <time>2020-02-20T10:45:35.000Z</time>
      </trkpt>
      <trkpt lat="45.22242" lon="6.01135">
        <ele>1668</ele>
        <time>2020-02-20T10:45:39.000Z</time>
      </trkpt>
      <trkpt lat="45.22243" lon="6.01123">
        <ele>1668</ele>
        <time>2020-02-20T10:45:42.000Z</time>
      </trkpt>
      <trkpt lat="45.22243" lon="6.01116">
        <ele>1665</ele>
        <time>2020-02-20T10:45:43.996Z</time>
      </trkpt>
      <trkpt lat="45.22243" lon="6.01108">
        <ele>1664</ele>
        <time>2020-02-20T10:45:47.002Z</time>
      </trkpt>
      <trkpt lat="45.22243" lon="6.01091">
        <ele>1662</ele>
        <time>2020-02-20T10:45:50.282Z</time>
      </trkpt>
      <trkpt lat="45.22242" lon="6.01085">
        <ele>1658</ele>
        <time>2020-02-20T10:45:56.000Z</time>
      </trkpt>
      <trkpt lat="45.22242" lon="6.01067">
        <ele>1655</ele>
        <time>2020-02-20T10:46:01.116Z</time>
      </trkpt>
      <trkpt lat="45.22242" lon="6.01052">
        <ele>1653</ele>
        <time>2020-02-20T10:46:06.000Z</time>
      </trkpt>
      <trkpt lat="45.22246" lon="6.01036">
        <ele>1651</ele>
        <time>2020-02-20T10:46:07.158Z</time>
      </trkpt>
      <trkpt lat="45.22246" lon="6.01024">
        <ele>1649</ele>
        <time>2020-02-20T10:46:12.000Z</time>
      </trkpt>
      <trkpt lat="45.22239" lon="6.01012">
        <ele>1645</ele>
        <time>2020-02-20T10:46:16.689Z</time>
      </trkpt>
      <trkpt lat="45.22235" lon="6.01005">
        <ele>1642</ele>
        <time>2020-02-20T10:46:22.000Z</time>
      </trkpt>
      <trkpt lat="45.22231" lon="6.00995">
        <ele>1637</ele>
        <time>2020-02-20T10:46:27.000Z</time>
      </trkpt>
      <trkpt lat="45.2223" lon="6.00988">
        <ele>1638</ele>
        <time>2020-02-20T10:46:41.000Z</time>
      </trkpt>
      <trkpt lat="45.22232" lon="6.0098">
        <ele>1634</ele>
        <time>2020-02-20T10:47:38.685Z</time>
      </trkpt>
      <trkpt lat="45.22231" lon="6.0097">
        <ele>1631</ele>
        <time>2020-02-20T10:47:44.000Z</time>
      </trkpt>
      <trkpt lat="45.22232" lon="6.0096">
        <ele>1626</ele>
        <time>2020-02-20T10:47:47.000Z</time>
      </trkpt>
      <trkpt lat="45.2223" lon="6.00948">
        <ele>1617</ele>
        <time>2020-02-20T10:47:55.000Z</time>
      </trkpt>
      <trkpt lat="45.22234" lon="6.00933">
        <ele>1611</ele>
        <time>2020-02-20T10:48:01.000Z</time>
      </trkpt>
      <trkpt lat="45.22244" lon="6.00927">
        <ele>1606</ele>
        <time>2020-02-20T10:48:05.000Z</time>
      </trkpt>
      <trkpt lat="45.22245" lon="6.00912">
        <ele>1607</ele>
        <time>2020-02-20T10:48:23.238Z</time>
      </trkpt>
      <trkpt lat="45.22237" lon="6.00889">
        <ele>1606</ele>
        <time>2020-02-20T10:48:28.000Z</time>
      </trkpt>
      <trkpt lat="45.22237" lon="6.00875">
        <ele>1606</ele>
        <time>2020-02-20T10:48:31.000Z</time>
      </trkpt>
      <trkpt lat="45.22234" lon="6.0086">
        <ele>1606</ele>
        <time>2020-02-20T10:48:34.000Z</time>
      </trkpt>
      <trkpt lat="45.22226" lon="6.00842">
        <ele>1605</ele>
        <time>2020-02-20T10:48:36.079Z</time>
      </trkpt>
      <trkpt lat="45.2222" lon="6.00832">
        <ele>1603</ele>
        <time>2020-02-20T10:48:41.000Z</time>
      </trkpt>
      <trkpt lat="45.22216" lon="6.00825">
        <ele>1601</ele>
        <time>2020-02-20T10:48:52.000Z</time>
      </trkpt>
      <trkpt lat="45.22208" lon="6.00811">
        <ele>1599</ele>
        <time>2020-02-20T10:48:56.000Z</time>
      </trkpt>
      <trkpt lat="45.22198" lon="6.00789">
        <ele>1596</ele>
        <time>2020-02-20T10:49:00.000Z</time>
      </trkpt>
      <trkpt lat="45.22198" lon="6.0078">
        <ele>1594</ele>
        <time>2020-02-20T10:49:03.253Z</time>
      </trkpt>
      <trkpt lat="45.22201" lon="6.00776">
        <ele>1587</ele>
        <time>2020-02-20T10:49:14.031Z</time>
      </trkpt>
      <trkpt lat="45.22209" lon="6.00769">
        <ele>1585</ele>
        <time>2020-02-20T10:49:22.000Z</time>
      </trkpt>
      <trkpt lat="45.22215" lon="6.00767">
        <ele>1582</ele>
        <time>2020-02-20T10:49:44.000Z</time>
      </trkpt>
      <trkpt lat="45.22209" lon="6.00758">
        <ele>1582</ele>
        <time>2020-02-20T10:50:16.813Z</time>
      </trkpt>
      <trkpt lat="45.22204" lon="6.00748">
        <ele>1579</ele>
        <time>2020-02-20T10:50:22.000Z</time>
      </trkpt>
      <trkpt lat="45.22207" lon="6.00738">
        <ele>1576</ele>
        <time>2020-02-20T10:50:27.437Z</time>
      </trkpt>
      <trkpt lat="45.22208" lon="6.0073">
        <ele>1574</ele>
        <time>2020-02-20T10:50:36.000Z</time>
      </trkpt>
      <trkpt lat="45.22209" lon="6.00724">
        <ele>1574</ele>
        <time>2020-02-20T10:50:42.196Z</time>
      </trkpt>
      <trkpt lat="45.2221" lon="6.00713">
        <ele>1572</ele>
        <time>2020-02-20T10:50:50.000Z</time>
      </trkpt>
      <trkpt lat="45.22209" lon="6.00706">
        <ele>1570</ele>
        <time>2020-02-20T10:51:00.000Z</time>
      </trkpt>
      <trkpt lat="45.2221" lon="6.00697">
        <ele>1566</ele>
        <time>2020-02-20T10:51:26.000Z</time>
      </trkpt>
      <trkpt lat="45.22211" lon="6.00673">
        <ele>1565</ele>
        <time>2020-02-20T10:51:31.223Z</time>
      </trkpt>
      <trkpt lat="45.22208" lon="6.00658">
        <ele>1564</ele>
        <time>2020-02-20T10:51:35.082Z</time>
      </trkpt>
      <trkpt lat="45.22208" lon="6.00645">
        <ele>1562</ele>
        <time>2020-02-20T10:51:40.000Z</time>
      </trkpt>
      <trkpt lat="45.22214" lon="6.00633">
        <ele>1562</ele>
        <time>2020-02-20T10:51:44.000Z</time>
      </trkpt>
      <trkpt lat="45.22216" lon="6.00621">
        <ele>1560</ele>
        <time>2020-02-20T10:51:50.212Z</time>
      </trkpt>
      <trkpt lat="45.22214" lon="6.00609">
        <ele>1559</ele>
        <time>2020-02-20T10:51:55.000Z</time>
      </trkpt>
      <trkpt lat="45.22211" lon="6.00595">
        <ele>1558</ele>
        <time>2020-02-20T10:51:58.000Z</time>
      </trkpt>
      <trkpt lat="45.22205" lon="6.00579">
        <ele>1557</ele>
        <time>2020-02-20T10:51:59.885Z</time>
      </trkpt>
      <trkpt lat="45.22202" lon="6.00568">
        <ele>1556</ele>
        <time>2020-02-20T10:52:03.076Z</time>
      </trkpt>
      <trkpt lat="45.22201" lon="6.0056">
        <ele>1553</ele>
        <time>2020-02-20T10:52:08.000Z</time>
      </trkpt>
      <trkpt lat="45.22198" lon="6.00542">
        <ele>1550</ele>
        <time>2020-02-20T10:52:11.000Z</time>
      </trkpt>
      <trkpt lat="45.22192" lon="6.00521">
        <ele>1548</ele>
        <time>2020-02-20T10:52:13.038Z</time>
      </trkpt>
      <trkpt lat="45.22191" lon="6.00514">
        <ele>1547</ele>
        <time>2020-02-20T10:52:18.000Z</time>
      </trkpt>
      <trkpt lat="45.22194" lon="6.00498">
        <ele>1545</ele>
        <time>2020-02-20T10:52:19.552Z</time>
      </trkpt>
      <trkpt lat="45.22209" lon="6.00507">
        <ele>1539</ele>
        <time>2020-02-20T10:52:26.457Z</time>
      </trkpt>
      <trkpt lat="45.22214" lon="6.00506">
        <ele>1537</ele>
        <time>2020-02-20T10:52:32.000Z</time>
      </trkpt>
      <trkpt lat="45.22217" lon="6.005">
        <ele>1535</ele>
        <time>2020-02-20T10:53:00.000Z</time>
      </trkpt>
      <trkpt lat="45.22222" lon="6.00498">
        <ele>1535</ele>
        <time>2020-02-20T10:54:53.000Z</time>
      </trkpt>
      <trkpt lat="45.22224" lon="6.00492">
        <ele>1532</ele>
        <time>2020-02-20T10:54:58.077Z</time>
      </trkpt>
      <trkpt lat="45.22227" lon="6.00485">
        <ele>1530</ele>
        <time>2020-02-20T10:55:06.000Z</time>
      </trkpt>
      <trkpt lat="45.2223" lon="6.00472">
        <ele>1527</ele>
        <time>2020-02-20T10:55:10.716Z</time>
      </trkpt>
      <trkpt lat="45.22232" lon="6.00463">
        <ele>1526</ele>
        <time>2020-02-20T10:55:19.000Z</time>
      </trkpt>
      <trkpt lat="45.22235" lon="6.00458">
        <ele>1525</ele>
        <time>2020-02-20T10:55:26.000Z</time>
      </trkpt>
      <trkpt lat="45.22238" lon="6.0045">
        <ele>1521</ele>
        <time>2020-02-20T10:55:37.431Z</time>
      </trkpt>
      <trkpt lat="45.22243" lon="6.00446">
        <ele>1519</ele>
        <time>2020-02-20T10:55:44.155Z</time>
      </trkpt>
      <trkpt lat="45.22246" lon="6.00441">
        <ele>1517</ele>
        <time>2020-02-20T10:55:50.801Z</time>
      </trkpt>
      <trkpt lat="45.22255" lon="6.00438">
        <ele>1514</ele>
        <time>2020-02-20T10:56:03.074Z</time>
      </trkpt>
      <trkpt lat="45.22256" lon="6.00432">
        <ele>1512</ele>
        <time>2020-02-20T10:56:12.000Z</time>
      </trkpt>
      <trkpt lat="45.2226" lon="6.00427">
        <ele>1511</ele>
        <time>2020-02-20T10:56:16.769Z</time>
      </trkpt>
      <trkpt lat="45.22264" lon="6.00419">
        <ele>1507</ele>
        <time>2020-02-20T10:56:23.558Z</time>
      </trkpt>
      <trkpt lat="45.22268" lon="6.00413">
        <ele>1504</ele>
        <time>2020-02-20T10:56:30.961Z</time>
      </trkpt>
      <trkpt lat="45.22272" lon="6.00405">
        <ele>1499</ele>
        <time>2020-02-20T10:56:40.403Z</time>
      </trkpt>
      <trkpt lat="45.22275" lon="6.00399">
        <ele>1496</ele>
        <time>2020-02-20T10:56:48.000Z</time>
      </trkpt>
      <trkpt lat="45.22279" lon="6.00394">
        <ele>1494</ele>
        <time>2020-02-20T10:56:50.474Z</time>
      </trkpt>
      <trkpt lat="45.22282" lon="6.00389">
        <ele>1493</ele>
        <time>2020-02-20T10:56:53.520Z</time>
      </trkpt>
      <trkpt lat="45.22288" lon="6.00387">
        <ele>1491</ele>
        <time>2020-02-20T10:57:02.000Z</time>
      </trkpt>
      <trkpt lat="45.2229" lon="6.00378">
        <ele>1487</ele>
        <time>2020-02-20T10:57:09.000Z</time>
      </trkpt>
      <trkpt lat="45.22292" lon="6.00371">
        <ele>1487</ele>
        <time>2020-02-20T10:57:10.967Z</time>
      </trkpt>
      <trkpt lat="45.22295" lon="6.0036">
        <ele>1485</ele>
        <time>2020-02-20T10:57:17.693Z</time>
      </trkpt>
      <trkpt lat="45.22299" lon="6.00354">
        <ele>1481</ele>
        <time>2020-02-20T10:57:26.000Z</time>
      </trkpt>
      <trkpt lat="45.22302" lon="6.00346">
        <ele>1479</ele>
        <time>2020-02-20T10:57:30.687Z</time>
      </trkpt>
      <trkpt lat="45.22305" lon="6.00338">
        <ele>1477</ele>
        <time>2020-02-20T10:57:37.996Z</time>
      </trkpt>
      <trkpt lat="45.22308" lon="6.00326">
        <ele>1476</ele>
        <time>2020-02-20T10:57:47.000Z</time>
      </trkpt>
      <trkpt lat="45.22306" lon="6.00319">
        <ele>1475</ele>
        <time>2020-02-20T10:57:48.944Z</time>
      </trkpt>
      <trkpt lat="45.22307" lon="6.00311">
        <ele>1474</ele>
        <time>2020-02-20T10:57:55.196Z</time>
      </trkpt>
      <trkpt lat="45.22307" lon="6.00302">
        <ele>1470</ele>
        <time>2020-02-20T10:58:01.513Z</time>
      </trkpt>
      <trkpt lat="45.22307" lon="6.00294">
        <ele>1470</ele>
        <time>2020-02-20T10:58:05.273Z</time>
      </trkpt>
      <trkpt lat="45.22306" lon="6.00287">
        <ele>1470</ele>
        <time>2020-02-20T10:58:08.459Z</time>
      </trkpt>
      <trkpt lat="45.22306" lon="6.0028">
        <ele>1469</ele>
        <time>2020-02-20T10:58:12.080Z</time>
      </trkpt>
      <trkpt lat="45.22306" lon="6.0027">
        <ele>1468</ele>
        <time>2020-02-20T10:58:18.597Z</time>
      </trkpt>
      <trkpt lat="45.22305" lon="6.00256">
        <ele>1465</ele>
        <time>2020-02-20T10:58:27.000Z</time>
      </trkpt>
      <trkpt lat="45.22301" lon="6.00247">
        <ele>1466</ele>
        <time>2020-02-20T10:58:34.000Z</time>
      </trkpt>
      <trkpt lat="45.223" lon="6.0024">
        <ele>1465</ele>
        <time>2020-02-20T10:58:39.139Z</time>
      </trkpt>
      <trkpt lat="45.22299" lon="6.00233">
        <ele>1464</ele>
        <time>2020-02-20T10:58:45.663Z</time>
      </trkpt>
      <trkpt lat="45.22299" lon="6.00226">
        <ele>1461</ele>
        <time>2020-02-20T10:58:53.000Z</time>
      </trkpt>
      <trkpt lat="45.22298" lon="6.00218">
        <ele>1460</ele>
        <time>2020-02-20T10:58:58.416Z</time>
      </trkpt>
      <trkpt lat="45.22302" lon="6.00211">
        <ele>1456</ele>
        <time>2020-02-20T10:59:06.000Z</time>
      </trkpt>
      <trkpt lat="45.22307" lon="6.00209">
        <ele>1455</ele>
        <time>2020-02-20T10:59:07.997Z</time>
      </trkpt>
      <trkpt lat="45.22312" lon="6.00209">
        <ele>1453</ele>
        <time>2020-02-20T10:59:11.159Z</time>
      </trkpt>
      <trkpt lat="45.2232" lon="6.00207">
        <ele>1452</ele>
        <time>2020-02-20T10:59:17.716Z</time>
      </trkpt>
      <trkpt lat="45.22325" lon="6.00203">
        <ele>1451</ele>
        <time>2020-02-20T10:59:24.441Z</time>
      </trkpt>
      <trkpt lat="45.22329" lon="6.00196">
        <ele>1452</ele>
        <time>2020-02-20T10:59:29.000Z</time>
      </trkpt>
      <trkpt lat="45.22332" lon="6.00187">
        <ele>1450</ele>
        <time>2020-02-20T10:59:34.021Z</time>
      </trkpt>
      <trkpt lat="45.22335" lon="6.00179">
        <ele>1446</ele>
        <time>2020-02-20T10:59:40.647Z</time>
      </trkpt>
      <trkpt lat="45.22342" lon="6.00172">
        <ele>1446</ele>
        <time>2020-02-20T10:59:47.423Z</time>
      </trkpt>
      <trkpt lat="45.22348" lon="6.00169">
        <ele>1446</ele>
        <time>2020-02-20T10:59:53.620Z</time>
      </trkpt>
      <trkpt lat="45.22356" lon="6.00166">
        <ele>1448</ele>
        <time>2020-02-20T11:00:02.000Z</time>
      </trkpt>
      <trkpt lat="45.22363" lon="6.00162">
        <ele>1447</ele>
        <time>2020-02-20T11:00:08.876Z</time>
      </trkpt>
      <trkpt lat="45.22364" lon="6.00153">
        <ele>1446</ele>
        <time>2020-02-20T11:00:15.175Z</time>
      </trkpt>
      <trkpt lat="45.22364" lon="6.00146">
        <ele>1446</ele>
        <time>2020-02-20T11:00:22.020Z</time>
      </trkpt>
      <trkpt lat="45.2237" lon="6.00142">
        <ele>1445</ele>
        <time>2020-02-20T11:00:29.253Z</time>
      </trkpt>
      <trkpt lat="45.22377" lon="6.00136">
        <ele>1444</ele>
        <time>2020-02-20T11:00:36.117Z</time>
      </trkpt>
      <trkpt lat="45.22382" lon="6.00129">
        <ele>1441</ele>
        <time>2020-02-20T11:00:43.000Z</time>
      </trkpt>
      <trkpt lat="45.22387" lon="6.00123">
        <ele>1440</ele>
        <time>2020-02-20T11:00:49.000Z</time>
      </trkpt>
      <trkpt lat="45.22392" lon="6.00118">
        <ele>1438</ele>
        <time>2020-02-20T11:00:54.898Z</time>
      </trkpt>
      <trkpt lat="45.22398" lon="6.0011">
        <ele>1437</ele>
        <time>2020-02-20T11:01:01.239Z</time>
      </trkpt>
      <trkpt lat="45.22402" lon="6.00107">
        <ele>1435</ele>
        <time>2020-02-20T11:01:04.449Z</time>
      </trkpt>
      <trkpt lat="45.22408" lon="6.001">
        <ele>1433</ele>
        <time>2020-02-20T11:01:10.696Z</time>
      </trkpt>
      <trkpt lat="45.22413" lon="6.00093">
        <ele>1432</ele>
        <time>2020-02-20T11:01:17.481Z</time>
      </trkpt>
      <trkpt lat="45.22414" lon="6.00084">
        <ele>1430</ele>
        <time>2020-02-20T11:01:25.000Z</time>
      </trkpt>
      <trkpt lat="45.22416" lon="6.00075">
        <ele>1428</ele>
        <time>2020-02-20T11:01:38.000Z</time>
      </trkpt>
      <trkpt lat="45.22417" lon="6.00066">
        <ele>1426</ele>
        <time>2020-02-20T11:01:48.899Z</time>
      </trkpt>
      <trkpt lat="45.22416" lon="6.00057">
        <ele>1425</ele>
        <time>2020-02-20T11:01:57.000Z</time>
      </trkpt>
      <trkpt lat="45.22419" lon="6.00051">
        <ele>1421</ele>
        <time>2020-02-20T11:02:06.243Z</time>
      </trkpt>
      <trkpt lat="45.22423" lon="6.00045">
        <ele>1418</ele>
        <time>2020-02-20T11:02:13.000Z</time>
      </trkpt>
      <trkpt lat="45.22425" lon="6.00037">
        <ele>1416</ele>
        <time>2020-02-20T11:02:19.175Z</time>
      </trkpt>
      <trkpt lat="45.22425" lon="6.00027">
        <ele>1415</ele>
        <time>2020-02-20T11:02:26.127Z</time>
      </trkpt>
      <trkpt lat="45.22425" lon="6.00019">
        <ele>1414</ele>
        <time>2020-02-20T11:02:33.000Z</time>
      </trkpt>
      <trkpt lat="45.22426" lon="6.0001">
        <ele>1413</ele>
        <time>2020-02-20T11:02:39.828Z</time>
      </trkpt>
      <trkpt lat="45.22428" lon="6.00002">
        <ele>1412</ele>
        <time>2020-02-20T11:02:46.216Z</time>
      </trkpt>
      <trkpt lat="45.22431" lon="5.99995">
        <ele>1410</ele>
        <time>2020-02-20T11:02:53.000Z</time>
      </trkpt>
      <trkpt lat="45.22433" lon="5.99987">
        <ele>1410</ele>
        <time>2020-02-20T11:02:59.357Z</time>
      </trkpt>
      <trkpt lat="45.22437" lon="5.9998">
        <ele>1408</ele>
        <time>2020-02-20T11:03:05.995Z</time>
      </trkpt>
      <trkpt lat="45.2244" lon="5.99971">
        <ele>1406</ele>
        <time>2020-02-20T11:03:12.799Z</time>
      </trkpt>
      <trkpt lat="45.22445" lon="5.99962">
        <ele>1403</ele>
        <time>2020-02-20T11:03:19.588Z</time>
      </trkpt>
      <trkpt lat="45.22446" lon="5.9995">
        <ele>1399</ele>
        <time>2020-02-20T11:03:26.328Z</time>
      </trkpt>
      <trkpt lat="45.22445" lon="5.9994">
        <ele>1395</ele>
        <time>2020-02-20T11:03:34.000Z</time>
      </trkpt>
      <trkpt lat="45.22445" lon="5.99928">
        <ele>1393</ele>
        <time>2020-02-20T11:03:41.000Z</time>
      </trkpt>
      <trkpt lat="45.22444" lon="5.9992">
        <ele>1393</ele>
        <time>2020-02-20T11:03:46.814Z</time>
      </trkpt>
      <trkpt lat="45.22444" lon="5.99911">
        <ele>1392</ele>
        <time>2020-02-20T11:03:55.000Z</time>
      </trkpt>
      <trkpt lat="45.22443" lon="5.999">
        <ele>1391</ele>
        <time>2020-02-20T11:04:00.397Z</time>
      </trkpt>
      <trkpt lat="45.22442" lon="5.99893">
        <ele>1392</ele>
        <time>2020-02-20T11:04:05.000Z</time>
      </trkpt>
      <trkpt lat="45.22441" lon="5.99882">
        <ele>1393</ele>
        <time>2020-02-20T11:04:07.049Z</time>
      </trkpt>
      <trkpt lat="45.2244" lon="5.9987">
        <ele>1391</ele>
        <time>2020-02-20T11:04:13.273Z</time>
      </trkpt>
      <trkpt lat="45.2244" lon="5.99864">
        <ele>1391</ele>
        <time>2020-02-20T11:04:16.840Z</time>
      </trkpt>
      <trkpt lat="45.22442" lon="5.99853">
        <ele>1390</ele>
        <time>2020-02-20T11:04:23.458Z</time>
      </trkpt>
      <trkpt lat="45.22447" lon="5.99847">
        <ele>1391</ele>
        <time>2020-02-20T11:04:31.000Z</time>
      </trkpt>
    </trkseg>
  </trk>
</gpx>